<?xml version="1.0" encoding="UTF-8" standalone="no" ?>
<gpx xmlns="http://www.topografix.com/GPX/1/1" xmlns:xsi="http://www.w3.org/2001/XMLSchema-instance" xsi:schemaLocation="http://www.topografix.com/GPX/1/1 http://www.topografix.com/GPX/1/1/gpx.xsd" version="1.1" creator="VisuGPX - https://www.visugpx.com">
  <metadata>
    <name>2022-02-03  Randonnée Ruisseau Saint-Pierre.</name>
    <desc><![CDATA[
Direction Baccarat par le sentier du pays d'accueil du Donon (losange bleu)- Basse Saint Jean - Saint Pierre- la grande avenue -route du Haut des Roches-retour .
]]></desc>
  </metadata>
  <trk>
    <name><![CDATA[2022-02-03 16:49:41]]></name>
    <trkseg>
      <trkpt lat="48.42671" lon="6.77393">
        <ele>256.02</ele>
        <time>2022-02-03T12:40:06Z</time>
      </trkpt>
      <trkpt lat="48.42673" lon="6.77392">
        <ele>259.09</ele>
        <time>2022-02-03T12:40:11Z</time>
      </trkpt>
      <trkpt lat="48.42673" lon="6.77392">
        <ele>262.84</ele>
        <time>2022-02-03T12:40:13Z</time>
      </trkpt>
      <trkpt lat="48.42672" lon="6.77393">
        <ele>267.03</ele>
        <time>2022-02-03T12:40:15Z</time>
      </trkpt>
      <trkpt lat="48.42671" lon="6.77394">
        <ele>272.93</ele>
        <time>2022-02-03T12:40:18Z</time>
      </trkpt>
      <trkpt lat="48.42671" lon="6.77394">
        <ele>276.6</ele>
        <time>2022-02-03T12:40:21Z</time>
      </trkpt>
      <trkpt lat="48.42669" lon="6.77394">
        <ele>280.63</ele>
        <time>2022-02-03T12:40:23Z</time>
      </trkpt>
      <trkpt lat="48.4267" lon="6.77393">
        <ele>278.83</ele>
        <time>2022-02-03T12:40:24Z</time>
      </trkpt>
      <trkpt lat="48.4267" lon="6.77393">
        <ele>282.61</ele>
        <time>2022-02-03T12:40:25Z</time>
      </trkpt>
      <trkpt lat="48.42671" lon="6.77393">
        <ele>285.78</ele>
        <time>2022-02-03T12:40:26Z</time>
      </trkpt>
      <trkpt lat="48.42671" lon="6.77393">
        <ele>282.64</ele>
        <time>2022-02-03T12:40:27Z</time>
      </trkpt>
      <trkpt lat="48.42671" lon="6.77392">
        <ele>287</ele>
        <time>2022-02-03T12:40:28Z</time>
      </trkpt>
      <trkpt lat="48.42672" lon="6.77392">
        <ele>289.39</ele>
        <time>2022-02-03T12:40:32Z</time>
      </trkpt>
      <trkpt lat="48.4267" lon="6.77396">
        <ele>293.58</ele>
        <time>2022-02-03T12:40:36Z</time>
      </trkpt>
      <trkpt lat="48.42653" lon="6.77414">
        <ele>296.72</ele>
        <time>2022-02-03T12:40:40Z</time>
      </trkpt>
      <trkpt lat="48.42643" lon="6.77424">
        <ele>299.16</ele>
        <time>2022-02-03T12:41:04Z</time>
      </trkpt>
      <trkpt lat="48.42644" lon="6.77419">
        <ele>299.38</ele>
        <time>2022-02-03T12:41:22Z</time>
      </trkpt>
      <trkpt lat="48.42658" lon="6.77433">
        <ele>298.19</ele>
        <time>2022-02-03T12:41:43Z</time>
      </trkpt>
      <trkpt lat="48.42662" lon="6.77438">
        <ele>298.27</ele>
        <time>2022-02-03T12:42:04Z</time>
      </trkpt>
      <trkpt lat="48.42659" lon="6.77442">
        <ele>297.82</ele>
        <time>2022-02-03T12:42:25Z</time>
      </trkpt>
      <trkpt lat="48.42655" lon="6.77435">
        <ele>297.91</ele>
        <time>2022-02-03T12:42:43Z</time>
      </trkpt>
      <trkpt lat="48.42647" lon="6.77434">
        <ele>297.96</ele>
        <time>2022-02-03T12:43:11Z</time>
      </trkpt>
      <trkpt lat="48.42648" lon="6.77437">
        <ele>297.28</ele>
        <time>2022-02-03T12:43:37Z</time>
      </trkpt>
      <trkpt lat="48.4264" lon="6.77437">
        <ele>296.47</ele>
        <time>2022-02-03T12:43:56Z</time>
      </trkpt>
      <trkpt lat="48.42633" lon="6.77435">
        <ele>296.8</ele>
        <time>2022-02-03T12:44:10Z</time>
      </trkpt>
      <trkpt lat="48.42641" lon="6.77439">
        <ele>296.75</ele>
        <time>2022-02-03T12:44:20Z</time>
      </trkpt>
      <trkpt lat="48.42645" lon="6.77437">
        <ele>296.92</ele>
        <time>2022-02-03T12:44:35Z</time>
      </trkpt>
      <trkpt lat="48.42635" lon="6.77424">
        <ele>297.5</ele>
        <time>2022-02-03T12:44:51Z</time>
      </trkpt>
      <trkpt lat="48.42626" lon="6.77408">
        <ele>298</ele>
        <time>2022-02-03T12:45:06Z</time>
      </trkpt>
      <trkpt lat="48.42626" lon="6.774">
        <ele>297.97</ele>
        <time>2022-02-03T12:45:11Z</time>
      </trkpt>
      <trkpt lat="48.42624" lon="6.77397">
        <ele>297.75</ele>
        <time>2022-02-03T12:45:13Z</time>
      </trkpt>
      <trkpt lat="48.42625" lon="6.7738">
        <ele>298.71</ele>
        <time>2022-02-03T12:45:26Z</time>
      </trkpt>
      <trkpt lat="48.42622" lon="6.77353">
        <ele>299.39</ele>
        <time>2022-02-03T12:45:48Z</time>
      </trkpt>
      <trkpt lat="48.42624" lon="6.77328">
        <ele>301.99</ele>
        <time>2022-02-03T12:46:06Z</time>
      </trkpt>
      <trkpt lat="48.42619" lon="6.77297">
        <ele>304.3</ele>
        <time>2022-02-03T12:46:31Z</time>
      </trkpt>
      <trkpt lat="48.42619" lon="6.77279">
        <ele>305.38</ele>
        <time>2022-02-03T12:46:48Z</time>
      </trkpt>
      <trkpt lat="48.42622" lon="6.77264">
        <ele>307.09</ele>
        <time>2022-02-03T12:47:02Z</time>
      </trkpt>
      <trkpt lat="48.42615" lon="6.7724">
        <ele>307.7</ele>
        <time>2022-02-03T12:47:19Z</time>
      </trkpt>
      <trkpt lat="48.42615" lon="6.77221">
        <ele>309.39</ele>
        <time>2022-02-03T12:47:38Z</time>
      </trkpt>
      <trkpt lat="48.42619" lon="6.77202">
        <ele>309.96</ele>
        <time>2022-02-03T12:47:53Z</time>
      </trkpt>
      <trkpt lat="48.42623" lon="6.77185">
        <ele>310.68</ele>
        <time>2022-02-03T12:48:10Z</time>
      </trkpt>
      <trkpt lat="48.42627" lon="6.77189">
        <ele>310.77</ele>
        <time>2022-02-03T12:48:28Z</time>
      </trkpt>
      <trkpt lat="48.42627" lon="6.77192">
        <ele>311.34</ele>
        <time>2022-02-03T12:48:33Z</time>
      </trkpt>
      <trkpt lat="48.4263" lon="6.77198">
        <ele>311.68</ele>
        <time>2022-02-03T12:48:41Z</time>
      </trkpt>
      <trkpt lat="48.42638" lon="6.77205">
        <ele>315.26</ele>
        <time>2022-02-03T12:48:57Z</time>
      </trkpt>
      <trkpt lat="48.42646" lon="6.77208">
        <ele>317.45</ele>
        <time>2022-02-03T12:49:18Z</time>
      </trkpt>
      <trkpt lat="48.42651" lon="6.77224">
        <ele>318.65</ele>
        <time>2022-02-03T12:49:37Z</time>
      </trkpt>
      <trkpt lat="48.42655" lon="6.77239">
        <ele>322.49</ele>
        <time>2022-02-03T12:49:48Z</time>
      </trkpt>
      <trkpt lat="48.42664" lon="6.77259">
        <ele>321.98</ele>
        <time>2022-02-03T12:50:07Z</time>
      </trkpt>
      <trkpt lat="48.42667" lon="6.7727">
        <ele>322.37</ele>
        <time>2022-02-03T12:50:14Z</time>
      </trkpt>
      <trkpt lat="48.42675" lon="6.77288">
        <ele>322.33</ele>
        <time>2022-02-03T12:50:31Z</time>
      </trkpt>
      <trkpt lat="48.42679" lon="6.77309">
        <ele>323.29</ele>
        <time>2022-02-03T12:50:50Z</time>
      </trkpt>
      <trkpt lat="48.42695" lon="6.77329">
        <ele>323.98</ele>
        <time>2022-02-03T12:51:11Z</time>
      </trkpt>
      <trkpt lat="48.42705" lon="6.77346">
        <ele>323.34</ele>
        <time>2022-02-03T12:51:28Z</time>
      </trkpt>
      <trkpt lat="48.42714" lon="6.77364">
        <ele>322.47</ele>
        <time>2022-02-03T12:51:47Z</time>
      </trkpt>
      <trkpt lat="48.42724" lon="6.77386">
        <ele>323.34</ele>
        <time>2022-02-03T12:52:08Z</time>
      </trkpt>
      <trkpt lat="48.42737" lon="6.77407">
        <ele>321.75</ele>
        <time>2022-02-03T12:52:24Z</time>
      </trkpt>
      <trkpt lat="48.42751" lon="6.77425">
        <ele>320.09</ele>
        <time>2022-02-03T12:52:45Z</time>
      </trkpt>
      <trkpt lat="48.42759" lon="6.77438">
        <ele>319.01</ele>
        <time>2022-02-03T12:53:03Z</time>
      </trkpt>
      <trkpt lat="48.42777" lon="6.77459">
        <ele>316.13</ele>
        <time>2022-02-03T12:53:24Z</time>
      </trkpt>
      <trkpt lat="48.42782" lon="6.77464">
        <ele>314.84</ele>
        <time>2022-02-03T12:53:30Z</time>
      </trkpt>
      <trkpt lat="48.42797" lon="6.77483">
        <ele>314.17</ele>
        <time>2022-02-03T12:53:49Z</time>
      </trkpt>
      <trkpt lat="48.42804" lon="6.77485">
        <ele>317.68</ele>
        <time>2022-02-03T12:54:03Z</time>
      </trkpt>
      <trkpt lat="48.42808" lon="6.77485">
        <ele>317.51</ele>
        <time>2022-02-03T12:54:07Z</time>
      </trkpt>
      <trkpt lat="48.42818" lon="6.77474">
        <ele>318.59</ele>
        <time>2022-02-03T12:54:25Z</time>
      </trkpt>
      <trkpt lat="48.42825" lon="6.77452">
        <ele>321.7</ele>
        <time>2022-02-03T12:54:45Z</time>
      </trkpt>
      <trkpt lat="48.42824" lon="6.77439">
        <ele>324.42</ele>
        <time>2022-02-03T12:55:05Z</time>
      </trkpt>
      <trkpt lat="48.42825" lon="6.77424">
        <ele>325.35</ele>
        <time>2022-02-03T12:55:21Z</time>
      </trkpt>
      <trkpt lat="48.42822" lon="6.77409">
        <ele>329.46</ele>
        <time>2022-02-03T12:55:37Z</time>
      </trkpt>
      <trkpt lat="48.42807" lon="6.77389">
        <ele>329.65</ele>
        <time>2022-02-03T12:55:54Z</time>
      </trkpt>
      <trkpt lat="48.42797" lon="6.77374">
        <ele>331.85</ele>
        <time>2022-02-03T12:56:07Z</time>
      </trkpt>
      <trkpt lat="48.42795" lon="6.77362">
        <ele>333.4</ele>
        <time>2022-02-03T12:56:16Z</time>
      </trkpt>
      <trkpt lat="48.42794" lon="6.77358">
        <ele>333.83</ele>
        <time>2022-02-03T12:56:20Z</time>
      </trkpt>
      <trkpt lat="48.42792" lon="6.77331">
        <ele>336.87</ele>
        <time>2022-02-03T12:56:39Z</time>
      </trkpt>
      <trkpt lat="48.42795" lon="6.77311">
        <ele>338.55</ele>
        <time>2022-02-03T12:56:57Z</time>
      </trkpt>
      <trkpt lat="48.42795" lon="6.773">
        <ele>339</ele>
        <time>2022-02-03T12:57:17Z</time>
      </trkpt>
      <trkpt lat="48.42801" lon="6.77274">
        <ele>340.75</ele>
        <time>2022-02-03T12:57:39Z</time>
      </trkpt>
      <trkpt lat="48.42811" lon="6.77247">
        <ele>342.38</ele>
        <time>2022-02-03T12:57:57Z</time>
      </trkpt>
      <trkpt lat="48.42822" lon="6.77224">
        <ele>342.03</ele>
        <time>2022-02-03T12:58:14Z</time>
      </trkpt>
      <trkpt lat="48.42825" lon="6.7719">
        <ele>342.08</ele>
        <time>2022-02-03T12:58:31Z</time>
      </trkpt>
      <trkpt lat="48.42823" lon="6.77163">
        <ele>343.41</ele>
        <time>2022-02-03T12:58:49Z</time>
      </trkpt>
      <trkpt lat="48.42817" lon="6.77135">
        <ele>342.91</ele>
        <time>2022-02-03T12:59:06Z</time>
      </trkpt>
      <trkpt lat="48.42817" lon="6.7711">
        <ele>342.19</ele>
        <time>2022-02-03T12:59:22Z</time>
      </trkpt>
      <trkpt lat="48.42819" lon="6.77083">
        <ele>342.19</ele>
        <time>2022-02-03T12:59:39Z</time>
      </trkpt>
      <trkpt lat="48.42825" lon="6.77055">
        <ele>341.73</ele>
        <time>2022-02-03T12:59:56Z</time>
      </trkpt>
      <trkpt lat="48.42829" lon="6.7703">
        <ele>341.06</ele>
        <time>2022-02-03T13:00:13Z</time>
      </trkpt>
      <trkpt lat="48.42828" lon="6.77012">
        <ele>341.23</ele>
        <time>2022-02-03T13:00:26Z</time>
      </trkpt>
      <trkpt lat="48.42824" lon="6.76986">
        <ele>339.63</ele>
        <time>2022-02-03T13:00:41Z</time>
      </trkpt>
      <trkpt lat="48.42824" lon="6.76971">
        <ele>337.27</ele>
        <time>2022-02-03T13:00:59Z</time>
      </trkpt>
      <trkpt lat="48.42823" lon="6.76969">
        <ele>336.47</ele>
        <time>2022-02-03T13:01:02Z</time>
      </trkpt>
      <trkpt lat="48.42821" lon="6.76966">
        <ele>335.65</ele>
        <time>2022-02-03T13:01:07Z</time>
      </trkpt>
      <trkpt lat="48.4282" lon="6.76952">
        <ele>332.17</ele>
        <time>2022-02-03T13:01:22Z</time>
      </trkpt>
      <trkpt lat="48.42819" lon="6.76939">
        <ele>329.14</ele>
        <time>2022-02-03T13:01:35Z</time>
      </trkpt>
      <trkpt lat="48.42819" lon="6.76932">
        <ele>327.55</ele>
        <time>2022-02-03T13:01:43Z</time>
      </trkpt>
      <trkpt lat="48.42819" lon="6.76904">
        <ele>324.3</ele>
        <time>2022-02-03T13:02:00Z</time>
      </trkpt>
      <trkpt lat="48.42819" lon="6.76884">
        <ele>321.67</ele>
        <time>2022-02-03T13:02:18Z</time>
      </trkpt>
      <trkpt lat="48.4282" lon="6.76866">
        <ele>318.92</ele>
        <time>2022-02-03T13:02:37Z</time>
      </trkpt>
      <trkpt lat="48.42825" lon="6.76845">
        <ele>315.81</ele>
        <time>2022-02-03T13:02:55Z</time>
      </trkpt>
      <trkpt lat="48.4283" lon="6.7682">
        <ele>312.53</ele>
        <time>2022-02-03T13:03:15Z</time>
      </trkpt>
      <trkpt lat="48.42834" lon="6.76802">
        <ele>309.29</ele>
        <time>2022-02-03T13:03:32Z</time>
      </trkpt>
      <trkpt lat="48.42839" lon="6.76785">
        <ele>306.18</ele>
        <time>2022-02-03T13:03:50Z</time>
      </trkpt>
      <trkpt lat="48.42847" lon="6.76771">
        <ele>303.72</ele>
        <time>2022-02-03T13:04:08Z</time>
      </trkpt>
      <trkpt lat="48.42853" lon="6.76755">
        <ele>300.53</ele>
        <time>2022-02-03T13:04:23Z</time>
      </trkpt>
      <trkpt lat="48.42861" lon="6.76733">
        <ele>297.61</ele>
        <time>2022-02-03T13:04:45Z</time>
      </trkpt>
      <trkpt lat="48.42872" lon="6.76712">
        <ele>294.51</ele>
        <time>2022-02-03T13:05:07Z</time>
      </trkpt>
      <trkpt lat="48.42881" lon="6.76693">
        <ele>291.46</ele>
        <time>2022-02-03T13:05:28Z</time>
      </trkpt>
      <trkpt lat="48.42886" lon="6.76679">
        <ele>289.29</ele>
        <time>2022-02-03T13:05:42Z</time>
      </trkpt>
      <trkpt lat="48.42886" lon="6.76678">
        <ele>289.25</ele>
        <time>2022-02-03T13:05:43Z</time>
      </trkpt>
      <trkpt lat="48.42895" lon="6.76651">
        <ele>285.53</ele>
        <time>2022-02-03T13:06:05Z</time>
      </trkpt>
      <trkpt lat="48.42897" lon="6.76642">
        <ele>285.12</ele>
        <time>2022-02-03T13:06:11Z</time>
      </trkpt>
      <trkpt lat="48.42899" lon="6.76635">
        <ele>286.12</ele>
        <time>2022-02-03T13:06:17Z</time>
      </trkpt>
      <trkpt lat="48.429" lon="6.76631">
        <ele>285.21</ele>
        <time>2022-02-03T13:06:21Z</time>
      </trkpt>
      <trkpt lat="48.42901" lon="6.76627">
        <ele>286.17</ele>
        <time>2022-02-03T13:06:31Z</time>
      </trkpt>
      <trkpt lat="48.42899" lon="6.76625">
        <ele>286.03</ele>
        <time>2022-02-03T13:06:51Z</time>
      </trkpt>
      <trkpt lat="48.42889" lon="6.7662">
        <ele>286.53</ele>
        <time>2022-02-03T13:07:19Z</time>
      </trkpt>
      <trkpt lat="48.42889" lon="6.76617">
        <ele>287.04</ele>
        <time>2022-02-03T13:07:43Z</time>
      </trkpt>
      <trkpt lat="48.42893" lon="6.7663">
        <ele>286.6</ele>
        <time>2022-02-03T13:08:06Z</time>
      </trkpt>
      <trkpt lat="48.42899" lon="6.76628">
        <ele>287</ele>
        <time>2022-02-03T13:08:29Z</time>
      </trkpt>
      <trkpt lat="48.42902" lon="6.76624">
        <ele>286.86</ele>
        <time>2022-02-03T13:08:47Z</time>
      </trkpt>
      <trkpt lat="48.42893" lon="6.76634">
        <ele>287.77</ele>
        <time>2022-02-03T13:09:14Z</time>
      </trkpt>
      <trkpt lat="48.42892" lon="6.76634">
        <ele>287.54</ele>
        <time>2022-02-03T13:09:36Z</time>
      </trkpt>
      <trkpt lat="48.42884" lon="6.76617">
        <ele>287.69</ele>
        <time>2022-02-03T13:09:58Z</time>
      </trkpt>
      <trkpt lat="48.4288" lon="6.76609">
        <ele>288.04</ele>
        <time>2022-02-03T13:10:03Z</time>
      </trkpt>
      <trkpt lat="48.42854" lon="6.76583">
        <ele>289.51</ele>
        <time>2022-02-03T13:10:25Z</time>
      </trkpt>
      <trkpt lat="48.42851" lon="6.76574">
        <ele>288.97</ele>
        <time>2022-02-03T13:10:30Z</time>
      </trkpt>
      <trkpt lat="48.42848" lon="6.7657">
        <ele>290.77</ele>
        <time>2022-02-03T13:10:33Z</time>
      </trkpt>
      <trkpt lat="48.42842" lon="6.76547">
        <ele>291.19</ele>
        <time>2022-02-03T13:10:47Z</time>
      </trkpt>
      <trkpt lat="48.42845" lon="6.76518">
        <ele>294.4</ele>
        <time>2022-02-03T13:11:06Z</time>
      </trkpt>
      <trkpt lat="48.42846" lon="6.76514">
        <ele>294.8</ele>
        <time>2022-02-03T13:11:11Z</time>
      </trkpt>
      <trkpt lat="48.42854" lon="6.76492">
        <ele>295.88</ele>
        <time>2022-02-03T13:11:30Z</time>
      </trkpt>
      <trkpt lat="48.42862" lon="6.76469">
        <ele>296.83</ele>
        <time>2022-02-03T13:11:52Z</time>
      </trkpt>
      <trkpt lat="48.42862" lon="6.76466">
        <ele>297.27</ele>
        <time>2022-02-03T13:11:55Z</time>
      </trkpt>
      <trkpt lat="48.42864" lon="6.76454">
        <ele>298.89</ele>
        <time>2022-02-03T13:12:18Z</time>
      </trkpt>
      <trkpt lat="48.42864" lon="6.76453">
        <ele>297.97</ele>
        <time>2022-02-03T13:12:19Z</time>
      </trkpt>
      <trkpt lat="48.42866" lon="6.76444">
        <ele>299.03</ele>
        <time>2022-02-03T13:12:30Z</time>
      </trkpt>
      <trkpt lat="48.42869" lon="6.76438">
        <ele>300.25</ele>
        <time>2022-02-03T13:12:36Z</time>
      </trkpt>
      <trkpt lat="48.42873" lon="6.76416">
        <ele>301.96</ele>
        <time>2022-02-03T13:12:55Z</time>
      </trkpt>
      <trkpt lat="48.42874" lon="6.76406">
        <ele>302.29</ele>
        <time>2022-02-03T13:13:02Z</time>
      </trkpt>
      <trkpt lat="48.42878" lon="6.76375">
        <ele>304.61</ele>
        <time>2022-02-03T13:13:24Z</time>
      </trkpt>
      <trkpt lat="48.42883" lon="6.76348">
        <ele>305.84</ele>
        <time>2022-02-03T13:13:43Z</time>
      </trkpt>
      <trkpt lat="48.42884" lon="6.76329">
        <ele>309.11</ele>
        <time>2022-02-03T13:14:00Z</time>
      </trkpt>
      <trkpt lat="48.42882" lon="6.76309">
        <ele>310.35</ele>
        <time>2022-02-03T13:14:19Z</time>
      </trkpt>
      <trkpt lat="48.42882" lon="6.76283">
        <ele>311.42</ele>
        <time>2022-02-03T13:14:37Z</time>
      </trkpt>
      <trkpt lat="48.42886" lon="6.76258">
        <ele>312.77</ele>
        <time>2022-02-03T13:14:58Z</time>
      </trkpt>
      <trkpt lat="48.42891" lon="6.76236">
        <ele>314.38</ele>
        <time>2022-02-03T13:15:18Z</time>
      </trkpt>
      <trkpt lat="48.42896" lon="6.76214">
        <ele>315.19</ele>
        <time>2022-02-03T13:15:41Z</time>
      </trkpt>
      <trkpt lat="48.42886" lon="6.76187">
        <ele>316.3</ele>
        <time>2022-02-03T13:16:01Z</time>
      </trkpt>
      <trkpt lat="48.4288" lon="6.7616">
        <ele>320.05</ele>
        <time>2022-02-03T13:16:23Z</time>
      </trkpt>
      <trkpt lat="48.42874" lon="6.76131">
        <ele>320.3</ele>
        <time>2022-02-03T13:16:45Z</time>
      </trkpt>
      <trkpt lat="48.42873" lon="6.76106">
        <ele>321.65</ele>
        <time>2022-02-03T13:17:03Z</time>
      </trkpt>
      <trkpt lat="48.42871" lon="6.76094">
        <ele>324.84</ele>
        <time>2022-02-03T13:17:13Z</time>
      </trkpt>
      <trkpt lat="48.42869" lon="6.7609">
        <ele>324.76</ele>
        <time>2022-02-03T13:17:16Z</time>
      </trkpt>
      <trkpt lat="48.42859" lon="6.7607">
        <ele>325.59</ele>
        <time>2022-02-03T13:17:36Z</time>
      </trkpt>
      <trkpt lat="48.42856" lon="6.76066">
        <ele>326.22</ele>
        <time>2022-02-03T13:17:40Z</time>
      </trkpt>
      <trkpt lat="48.42846" lon="6.76037">
        <ele>328.21</ele>
        <time>2022-02-03T13:18:02Z</time>
      </trkpt>
      <trkpt lat="48.42845" lon="6.76026">
        <ele>328.33</ele>
        <time>2022-02-03T13:18:13Z</time>
      </trkpt>
      <trkpt lat="48.42841" lon="6.76005">
        <ele>331.77</ele>
        <time>2022-02-03T13:18:27Z</time>
      </trkpt>
      <trkpt lat="48.42838" lon="6.75999">
        <ele>330.91</ele>
        <time>2022-02-03T13:18:36Z</time>
      </trkpt>
      <trkpt lat="48.42838" lon="6.75977">
        <ele>332.29</ele>
        <time>2022-02-03T13:19:02Z</time>
      </trkpt>
      <trkpt lat="48.42832" lon="6.75964">
        <ele>331.44</ele>
        <time>2022-02-03T13:19:15Z</time>
      </trkpt>
      <trkpt lat="48.42831" lon="6.75963">
        <ele>332.77</ele>
        <time>2022-02-03T13:19:17Z</time>
      </trkpt>
      <trkpt lat="48.42825" lon="6.75942">
        <ele>332.53</ele>
        <time>2022-02-03T13:19:35Z</time>
      </trkpt>
      <trkpt lat="48.42818" lon="6.75918">
        <ele>334.11</ele>
        <time>2022-02-03T13:19:54Z</time>
      </trkpt>
      <trkpt lat="48.42806" lon="6.75897">
        <ele>333.77</ele>
        <time>2022-02-03T13:20:13Z</time>
      </trkpt>
      <trkpt lat="48.42795" lon="6.75878">
        <ele>334.41</ele>
        <time>2022-02-03T13:20:34Z</time>
      </trkpt>
      <trkpt lat="48.42792" lon="6.75875">
        <ele>333.67</ele>
        <time>2022-02-03T13:20:41Z</time>
      </trkpt>
      <trkpt lat="48.42783" lon="6.75855">
        <ele>334.66</ele>
        <time>2022-02-03T13:20:59Z</time>
      </trkpt>
      <trkpt lat="48.42788" lon="6.75833">
        <ele>335.63</ele>
        <time>2022-02-03T13:21:17Z</time>
      </trkpt>
      <trkpt lat="48.42796" lon="6.75812">
        <ele>335.91</ele>
        <time>2022-02-03T13:21:36Z</time>
      </trkpt>
      <trkpt lat="48.42805" lon="6.75784">
        <ele>336.19</ele>
        <time>2022-02-03T13:21:55Z</time>
      </trkpt>
      <trkpt lat="48.42809" lon="6.75759">
        <ele>334.5</ele>
        <time>2022-02-03T13:22:12Z</time>
      </trkpt>
      <trkpt lat="48.4282" lon="6.75735">
        <ele>334.82</ele>
        <time>2022-02-03T13:22:30Z</time>
      </trkpt>
      <trkpt lat="48.42815" lon="6.75719">
        <ele>334.65</ele>
        <time>2022-02-03T13:22:48Z</time>
      </trkpt>
      <trkpt lat="48.42803" lon="6.75709">
        <ele>333.6</ele>
        <time>2022-02-03T13:23:03Z</time>
      </trkpt>
      <trkpt lat="48.42804" lon="6.75711">
        <ele>334.81</ele>
        <time>2022-02-03T13:23:25Z</time>
      </trkpt>
      <trkpt lat="48.42807" lon="6.75706">
        <ele>334.72</ele>
        <time>2022-02-03T13:23:51Z</time>
      </trkpt>
      <trkpt lat="48.4281" lon="6.75705">
        <ele>335.39</ele>
        <time>2022-02-03T13:24:13Z</time>
      </trkpt>
      <trkpt lat="48.42812" lon="6.75708">
        <ele>333.63</ele>
        <time>2022-02-03T13:24:23Z</time>
      </trkpt>
      <trkpt lat="48.42812" lon="6.75708">
        <ele>337.41</ele>
        <time>2022-02-03T13:24:24Z</time>
      </trkpt>
      <trkpt lat="48.42812" lon="6.75708">
        <ele>335.14</ele>
        <time>2022-02-03T13:24:25Z</time>
      </trkpt>
      <trkpt lat="48.42813" lon="6.75714">
        <ele>334.45</ele>
        <time>2022-02-03T13:24:47Z</time>
      </trkpt>
      <trkpt lat="48.42812" lon="6.75718">
        <ele>335.03</ele>
        <time>2022-02-03T13:25:16Z</time>
      </trkpt>
      <trkpt lat="48.42814" lon="6.75718">
        <ele>335.38</ele>
        <time>2022-02-03T13:25:35Z</time>
      </trkpt>
      <trkpt lat="48.42818" lon="6.75722">
        <ele>335.84</ele>
        <time>2022-02-03T13:25:54Z</time>
      </trkpt>
      <trkpt lat="48.42817" lon="6.75728">
        <ele>335.51</ele>
        <time>2022-02-03T13:26:13Z</time>
      </trkpt>
      <trkpt lat="48.42815" lon="6.7573">
        <ele>334.97</ele>
        <time>2022-02-03T13:26:38Z</time>
      </trkpt>
      <trkpt lat="48.42815" lon="6.75718">
        <ele>334.88</ele>
        <time>2022-02-03T13:27:05Z</time>
      </trkpt>
      <trkpt lat="48.42812" lon="6.75711">
        <ele>334.87</ele>
        <time>2022-02-03T13:27:15Z</time>
      </trkpt>
      <trkpt lat="48.4281" lon="6.75708">
        <ele>334.75</ele>
        <time>2022-02-03T13:27:17Z</time>
      </trkpt>
      <trkpt lat="48.42798" lon="6.75698">
        <ele>334.75</ele>
        <time>2022-02-03T13:27:31Z</time>
      </trkpt>
      <trkpt lat="48.42779" lon="6.75686">
        <ele>335.38</ele>
        <time>2022-02-03T13:27:52Z</time>
      </trkpt>
      <trkpt lat="48.42761" lon="6.75675">
        <ele>335.95</ele>
        <time>2022-02-03T13:28:10Z</time>
      </trkpt>
      <trkpt lat="48.42743" lon="6.75663">
        <ele>335.74</ele>
        <time>2022-02-03T13:28:29Z</time>
      </trkpt>
      <trkpt lat="48.42741" lon="6.75661">
        <ele>336.07</ele>
        <time>2022-02-03T13:28:31Z</time>
      </trkpt>
      <trkpt lat="48.42727" lon="6.75651">
        <ele>335.54</ele>
        <time>2022-02-03T13:28:45Z</time>
      </trkpt>
      <trkpt lat="48.42711" lon="6.75638">
        <ele>336.27</ele>
        <time>2022-02-03T13:29:01Z</time>
      </trkpt>
      <trkpt lat="48.42699" lon="6.7563">
        <ele>336.12</ele>
        <time>2022-02-03T13:29:12Z</time>
      </trkpt>
      <trkpt lat="48.42688" lon="6.75621">
        <ele>336.34</ele>
        <time>2022-02-03T13:29:23Z</time>
      </trkpt>
      <trkpt lat="48.42681" lon="6.75618">
        <ele>336.12</ele>
        <time>2022-02-03T13:29:29Z</time>
      </trkpt>
      <trkpt lat="48.42676" lon="6.75607">
        <ele>335.64</ele>
        <time>2022-02-03T13:29:39Z</time>
      </trkpt>
      <trkpt lat="48.42667" lon="6.75596">
        <ele>335.46</ele>
        <time>2022-02-03T13:29:54Z</time>
      </trkpt>
      <trkpt lat="48.4265" lon="6.75589">
        <ele>336.19</ele>
        <time>2022-02-03T13:30:11Z</time>
      </trkpt>
      <trkpt lat="48.42631" lon="6.75574">
        <ele>336.54</ele>
        <time>2022-02-03T13:30:27Z</time>
      </trkpt>
      <trkpt lat="48.42614" lon="6.7556">
        <ele>336.47</ele>
        <time>2022-02-03T13:30:40Z</time>
      </trkpt>
      <trkpt lat="48.42596" lon="6.75548">
        <ele>336.58</ele>
        <time>2022-02-03T13:30:56Z</time>
      </trkpt>
      <trkpt lat="48.42579" lon="6.75532">
        <ele>335.46</ele>
        <time>2022-02-03T13:31:15Z</time>
      </trkpt>
      <trkpt lat="48.42571" lon="6.75527">
        <ele>335.63</ele>
        <time>2022-02-03T13:31:21Z</time>
      </trkpt>
      <trkpt lat="48.4256" lon="6.75519">
        <ele>336.06</ele>
        <time>2022-02-03T13:31:34Z</time>
      </trkpt>
      <trkpt lat="48.42542" lon="6.75498">
        <ele>336.15</ele>
        <time>2022-02-03T13:31:53Z</time>
      </trkpt>
      <trkpt lat="48.42525" lon="6.75485">
        <ele>335.22</ele>
        <time>2022-02-03T13:32:12Z</time>
      </trkpt>
      <trkpt lat="48.42503" lon="6.75471">
        <ele>336.26</ele>
        <time>2022-02-03T13:32:31Z</time>
      </trkpt>
      <trkpt lat="48.42486" lon="6.75457">
        <ele>335.44</ele>
        <time>2022-02-03T13:32:48Z</time>
      </trkpt>
      <trkpt lat="48.42465" lon="6.75442">
        <ele>335.78</ele>
        <time>2022-02-03T13:33:09Z</time>
      </trkpt>
      <trkpt lat="48.42454" lon="6.75431">
        <ele>335.27</ele>
        <time>2022-02-03T13:33:21Z</time>
      </trkpt>
      <trkpt lat="48.42451" lon="6.75428">
        <ele>334.88</ele>
        <time>2022-02-03T13:33:23Z</time>
      </trkpt>
      <trkpt lat="48.42435" lon="6.75416">
        <ele>334.62</ele>
        <time>2022-02-03T13:33:40Z</time>
      </trkpt>
      <trkpt lat="48.42416" lon="6.754">
        <ele>334.49</ele>
        <time>2022-02-03T13:34:00Z</time>
      </trkpt>
      <trkpt lat="48.42397" lon="6.75384">
        <ele>333.89</ele>
        <time>2022-02-03T13:34:17Z</time>
      </trkpt>
      <trkpt lat="48.42385" lon="6.75373">
        <ele>333.77</ele>
        <time>2022-02-03T13:34:31Z</time>
      </trkpt>
      <trkpt lat="48.42362" lon="6.75357">
        <ele>333.77</ele>
        <time>2022-02-03T13:34:52Z</time>
      </trkpt>
      <trkpt lat="48.4234" lon="6.75342">
        <ele>333.84</ele>
        <time>2022-02-03T13:35:12Z</time>
      </trkpt>
      <trkpt lat="48.42318" lon="6.75322">
        <ele>333.84</ele>
        <time>2022-02-03T13:35:31Z</time>
      </trkpt>
      <trkpt lat="48.42308" lon="6.75314">
        <ele>333.84</ele>
        <time>2022-02-03T13:35:43Z</time>
      </trkpt>
      <trkpt lat="48.42295" lon="6.75302">
        <ele>333.72</ele>
        <time>2022-02-03T13:35:59Z</time>
      </trkpt>
      <trkpt lat="48.42288" lon="6.75299">
        <ele>334.09</ele>
        <time>2022-02-03T13:36:04Z</time>
      </trkpt>
      <trkpt lat="48.42269" lon="6.75284">
        <ele>334.6</ele>
        <time>2022-02-03T13:36:23Z</time>
      </trkpt>
      <trkpt lat="48.42255" lon="6.75274">
        <ele>334.09</ele>
        <time>2022-02-03T13:36:36Z</time>
      </trkpt>
      <trkpt lat="48.42245" lon="6.75265">
        <ele>333.86</ele>
        <time>2022-02-03T13:36:47Z</time>
      </trkpt>
      <trkpt lat="48.42229" lon="6.75252">
        <ele>333.05</ele>
        <time>2022-02-03T13:37:02Z</time>
      </trkpt>
      <trkpt lat="48.4221" lon="6.75239">
        <ele>332.37</ele>
        <time>2022-02-03T13:37:19Z</time>
      </trkpt>
      <trkpt lat="48.42195" lon="6.75229">
        <ele>331.96</ele>
        <time>2022-02-03T13:37:35Z</time>
      </trkpt>
      <trkpt lat="48.42177" lon="6.75214">
        <ele>331.47</ele>
        <time>2022-02-03T13:37:52Z</time>
      </trkpt>
      <trkpt lat="48.42159" lon="6.752">
        <ele>330.89</ele>
        <time>2022-02-03T13:38:09Z</time>
      </trkpt>
      <trkpt lat="48.42147" lon="6.75189">
        <ele>329.99</ele>
        <time>2022-02-03T13:38:23Z</time>
      </trkpt>
      <trkpt lat="48.42136" lon="6.7518">
        <ele>329.39</ele>
        <time>2022-02-03T13:38:43Z</time>
      </trkpt>
      <trkpt lat="48.42128" lon="6.75173">
        <ele>328.72</ele>
        <time>2022-02-03T13:39:05Z</time>
      </trkpt>
      <trkpt lat="48.42114" lon="6.75158">
        <ele>327.03</ele>
        <time>2022-02-03T13:39:23Z</time>
      </trkpt>
      <trkpt lat="48.42107" lon="6.75155">
        <ele>327.16</ele>
        <time>2022-02-03T13:39:37Z</time>
      </trkpt>
      <trkpt lat="48.42111" lon="6.7516">
        <ele>327.52</ele>
        <time>2022-02-03T13:39:55Z</time>
      </trkpt>
      <trkpt lat="48.42114" lon="6.7516">
        <ele>327.31</ele>
        <time>2022-02-03T13:40:22Z</time>
      </trkpt>
      <trkpt lat="48.42116" lon="6.75158">
        <ele>327.08</ele>
        <time>2022-02-03T13:40:46Z</time>
      </trkpt>
      <trkpt lat="48.42116" lon="6.75159">
        <ele>327.24</ele>
        <time>2022-02-03T13:41:17Z</time>
      </trkpt>
      <trkpt lat="48.42117" lon="6.7516">
        <ele>327.12</ele>
        <time>2022-02-03T13:41:45Z</time>
      </trkpt>
      <trkpt lat="48.42107" lon="6.75166">
        <ele>326.77</ele>
        <time>2022-02-03T13:42:06Z</time>
      </trkpt>
      <trkpt lat="48.42096" lon="6.75181">
        <ele>327.67</ele>
        <time>2022-02-03T13:42:21Z</time>
      </trkpt>
      <trkpt lat="48.42082" lon="6.75198">
        <ele>327.83</ele>
        <time>2022-02-03T13:42:38Z</time>
      </trkpt>
      <trkpt lat="48.42068" lon="6.75206">
        <ele>327.78</ele>
        <time>2022-02-03T13:42:52Z</time>
      </trkpt>
      <trkpt lat="48.42067" lon="6.75206">
        <ele>328.55</ele>
        <time>2022-02-03T13:42:54Z</time>
      </trkpt>
      <trkpt lat="48.42051" lon="6.7521">
        <ele>328.49</ele>
        <time>2022-02-03T13:43:09Z</time>
      </trkpt>
      <trkpt lat="48.42035" lon="6.75215">
        <ele>329.85</ele>
        <time>2022-02-03T13:43:24Z</time>
      </trkpt>
      <trkpt lat="48.42026" lon="6.75219">
        <ele>330.57</ele>
        <time>2022-02-03T13:43:33Z</time>
      </trkpt>
      <trkpt lat="48.42007" lon="6.75225">
        <ele>331.33</ele>
        <time>2022-02-03T13:43:49Z</time>
      </trkpt>
      <trkpt lat="48.41989" lon="6.75238">
        <ele>332.53</ele>
        <time>2022-02-03T13:44:05Z</time>
      </trkpt>
      <trkpt lat="48.41971" lon="6.7525">
        <ele>332.57</ele>
        <time>2022-02-03T13:44:22Z</time>
      </trkpt>
      <trkpt lat="48.41967" lon="6.75252">
        <ele>332.08</ele>
        <time>2022-02-03T13:44:26Z</time>
      </trkpt>
      <trkpt lat="48.41949" lon="6.75264">
        <ele>332.54</ele>
        <time>2022-02-03T13:44:45Z</time>
      </trkpt>
      <trkpt lat="48.41935" lon="6.75275">
        <ele>331.82</ele>
        <time>2022-02-03T13:45:00Z</time>
      </trkpt>
      <trkpt lat="48.41921" lon="6.75286">
        <ele>332.63</ele>
        <time>2022-02-03T13:45:14Z</time>
      </trkpt>
      <trkpt lat="48.41903" lon="6.75302">
        <ele>332.76</ele>
        <time>2022-02-03T13:45:30Z</time>
      </trkpt>
      <trkpt lat="48.4189" lon="6.75316">
        <ele>332.71</ele>
        <time>2022-02-03T13:45:45Z</time>
      </trkpt>
      <trkpt lat="48.41876" lon="6.75323">
        <ele>333.45</ele>
        <time>2022-02-03T13:45:58Z</time>
      </trkpt>
      <trkpt lat="48.41861" lon="6.7534">
        <ele>333.67</ele>
        <time>2022-02-03T13:46:13Z</time>
      </trkpt>
      <trkpt lat="48.41858" lon="6.75341">
        <ele>334.57</ele>
        <time>2022-02-03T13:46:15Z</time>
      </trkpt>
      <trkpt lat="48.41847" lon="6.75348">
        <ele>334.15</ele>
        <time>2022-02-03T13:46:26Z</time>
      </trkpt>
      <trkpt lat="48.41834" lon="6.75361">
        <ele>335.35</ele>
        <time>2022-02-03T13:46:41Z</time>
      </trkpt>
      <trkpt lat="48.41832" lon="6.75364">
        <ele>334.7</ele>
        <time>2022-02-03T13:46:44Z</time>
      </trkpt>
      <trkpt lat="48.41822" lon="6.7537">
        <ele>334.95</ele>
        <time>2022-02-03T13:46:53Z</time>
      </trkpt>
      <trkpt lat="48.41799" lon="6.75376">
        <ele>334.71</ele>
        <time>2022-02-03T13:47:11Z</time>
      </trkpt>
      <trkpt lat="48.4178" lon="6.75377">
        <ele>334.68</ele>
        <time>2022-02-03T13:47:28Z</time>
      </trkpt>
      <trkpt lat="48.41763" lon="6.75372">
        <ele>334.68</ele>
        <time>2022-02-03T13:47:43Z</time>
      </trkpt>
      <trkpt lat="48.41741" lon="6.75369">
        <ele>334.23</ele>
        <time>2022-02-03T13:48:03Z</time>
      </trkpt>
      <trkpt lat="48.41739" lon="6.75369">
        <ele>334.65</ele>
        <time>2022-02-03T13:48:05Z</time>
      </trkpt>
      <trkpt lat="48.4172" lon="6.75362">
        <ele>335.03</ele>
        <time>2022-02-03T13:48:23Z</time>
      </trkpt>
      <trkpt lat="48.41703" lon="6.75359">
        <ele>335.45</ele>
        <time>2022-02-03T13:48:40Z</time>
      </trkpt>
      <trkpt lat="48.4169" lon="6.75355">
        <ele>335.66</ele>
        <time>2022-02-03T13:48:52Z</time>
      </trkpt>
      <trkpt lat="48.41682" lon="6.75354">
        <ele>336.42</ele>
        <time>2022-02-03T13:48:59Z</time>
      </trkpt>
      <trkpt lat="48.41666" lon="6.75346">
        <ele>336.42</ele>
        <time>2022-02-03T13:49:15Z</time>
      </trkpt>
      <trkpt lat="48.41643" lon="6.75338">
        <ele>337.15</ele>
        <time>2022-02-03T13:49:37Z</time>
      </trkpt>
      <trkpt lat="48.41624" lon="6.75333">
        <ele>337.32</ele>
        <time>2022-02-03T13:49:53Z</time>
      </trkpt>
      <trkpt lat="48.41604" lon="6.75327">
        <ele>337.04</ele>
        <time>2022-02-03T13:50:11Z</time>
      </trkpt>
      <trkpt lat="48.41595" lon="6.75319">
        <ele>337.11</ele>
        <time>2022-02-03T13:50:20Z</time>
      </trkpt>
      <trkpt lat="48.41581" lon="6.75314">
        <ele>336.84</ele>
        <time>2022-02-03T13:50:33Z</time>
      </trkpt>
      <trkpt lat="48.41576" lon="6.75308">
        <ele>336.97</ele>
        <time>2022-02-03T13:50:38Z</time>
      </trkpt>
      <trkpt lat="48.41553" lon="6.75292">
        <ele>338.05</ele>
        <time>2022-02-03T13:50:58Z</time>
      </trkpt>
      <trkpt lat="48.41542" lon="6.75284">
        <ele>339.54</ele>
        <time>2022-02-03T13:51:09Z</time>
      </trkpt>
      <trkpt lat="48.41541" lon="6.75283">
        <ele>338.89</ele>
        <time>2022-02-03T13:51:10Z</time>
      </trkpt>
      <trkpt lat="48.41537" lon="6.7528">
        <ele>339.93</ele>
        <time>2022-02-03T13:51:14Z</time>
      </trkpt>
      <trkpt lat="48.41535" lon="6.75279">
        <ele>339.48</ele>
        <time>2022-02-03T13:51:15Z</time>
      </trkpt>
      <trkpt lat="48.41523" lon="6.75271">
        <ele>339.57</ele>
        <time>2022-02-03T13:51:27Z</time>
      </trkpt>
      <trkpt lat="48.41504" lon="6.75263">
        <ele>341.01</ele>
        <time>2022-02-03T13:51:43Z</time>
      </trkpt>
      <trkpt lat="48.41494" lon="6.75258">
        <ele>342.95</ele>
        <time>2022-02-03T13:51:52Z</time>
      </trkpt>
      <trkpt lat="48.41476" lon="6.75257">
        <ele>343.11</ele>
        <time>2022-02-03T13:52:11Z</time>
      </trkpt>
      <trkpt lat="48.4146" lon="6.7526">
        <ele>344.14</ele>
        <time>2022-02-03T13:52:30Z</time>
      </trkpt>
      <trkpt lat="48.41444" lon="6.75269">
        <ele>344.81</ele>
        <time>2022-02-03T13:52:49Z</time>
      </trkpt>
      <trkpt lat="48.41444" lon="6.75295">
        <ele>344.02</ele>
        <time>2022-02-03T13:53:08Z</time>
      </trkpt>
      <trkpt lat="48.4145" lon="6.75309">
        <ele>344.66</ele>
        <time>2022-02-03T13:53:20Z</time>
      </trkpt>
      <trkpt lat="48.41449" lon="6.75312">
        <ele>345.06</ele>
        <time>2022-02-03T13:53:39Z</time>
      </trkpt>
      <trkpt lat="48.41448" lon="6.75311">
        <ele>344.97</ele>
        <time>2022-02-03T13:53:56Z</time>
      </trkpt>
      <trkpt lat="48.41455" lon="6.75315">
        <ele>345.39</ele>
        <time>2022-02-03T13:54:14Z</time>
      </trkpt>
      <trkpt lat="48.41453" lon="6.75311">
        <ele>345.91</ele>
        <time>2022-02-03T13:54:33Z</time>
      </trkpt>
      <trkpt lat="48.41451" lon="6.75311">
        <ele>345.47</ele>
        <time>2022-02-03T13:54:52Z</time>
      </trkpt>
      <trkpt lat="48.41452" lon="6.75312">
        <ele>345.15</ele>
        <time>2022-02-03T13:55:16Z</time>
      </trkpt>
      <trkpt lat="48.41454" lon="6.75318">
        <ele>346.41</ele>
        <time>2022-02-03T13:55:47Z</time>
      </trkpt>
      <trkpt lat="48.41448" lon="6.75303">
        <ele>346.15</ele>
        <time>2022-02-03T13:56:01Z</time>
      </trkpt>
      <trkpt lat="48.41447" lon="6.75287">
        <ele>345.92</ele>
        <time>2022-02-03T13:56:11Z</time>
      </trkpt>
      <trkpt lat="48.4144" lon="6.75265">
        <ele>345.69</ele>
        <time>2022-02-03T13:56:28Z</time>
      </trkpt>
      <trkpt lat="48.41439" lon="6.75263">
        <ele>345.13</ele>
        <time>2022-02-03T13:56:48Z</time>
      </trkpt>
      <trkpt lat="48.41435" lon="6.75262">
        <ele>344.3</ele>
        <time>2022-02-03T13:57:12Z</time>
      </trkpt>
      <trkpt lat="48.41429" lon="6.75265">
        <ele>343.82</ele>
        <time>2022-02-03T13:57:38Z</time>
      </trkpt>
      <trkpt lat="48.41429" lon="6.75264">
        <ele>343.97</ele>
        <time>2022-02-03T13:58:06Z</time>
      </trkpt>
      <trkpt lat="48.41434" lon="6.75263">
        <ele>343.61</ele>
        <time>2022-02-03T13:58:26Z</time>
      </trkpt>
      <trkpt lat="48.41439" lon="6.75265">
        <ele>343.47</ele>
        <time>2022-02-03T13:58:47Z</time>
      </trkpt>
      <trkpt lat="48.4144" lon="6.75268">
        <ele>344.16</ele>
        <time>2022-02-03T13:59:15Z</time>
      </trkpt>
      <trkpt lat="48.41421" lon="6.75268">
        <ele>344.49</ele>
        <time>2022-02-03T13:59:31Z</time>
      </trkpt>
      <trkpt lat="48.41407" lon="6.75273">
        <ele>343.43</ele>
        <time>2022-02-03T13:59:42Z</time>
      </trkpt>
      <trkpt lat="48.4139" lon="6.7528">
        <ele>344.55</ele>
        <time>2022-02-03T13:59:59Z</time>
      </trkpt>
      <trkpt lat="48.41378" lon="6.7529">
        <ele>344.16</ele>
        <time>2022-02-03T14:00:11Z</time>
      </trkpt>
      <trkpt lat="48.41363" lon="6.753">
        <ele>344.46</ele>
        <time>2022-02-03T14:00:25Z</time>
      </trkpt>
      <trkpt lat="48.41354" lon="6.75306">
        <ele>343.93</ele>
        <time>2022-02-03T14:00:33Z</time>
      </trkpt>
      <trkpt lat="48.41335" lon="6.75314">
        <ele>343.22</ele>
        <time>2022-02-03T14:00:51Z</time>
      </trkpt>
      <trkpt lat="48.41317" lon="6.75323">
        <ele>342.8</ele>
        <time>2022-02-03T14:01:09Z</time>
      </trkpt>
      <trkpt lat="48.41301" lon="6.75333">
        <ele>342.51</ele>
        <time>2022-02-03T14:01:24Z</time>
      </trkpt>
      <trkpt lat="48.41287" lon="6.7534">
        <ele>342.26</ele>
        <time>2022-02-03T14:01:34Z</time>
      </trkpt>
      <trkpt lat="48.41271" lon="6.75349">
        <ele>341.82</ele>
        <time>2022-02-03T14:01:50Z</time>
      </trkpt>
      <trkpt lat="48.41254" lon="6.75356">
        <ele>341.8</ele>
        <time>2022-02-03T14:02:07Z</time>
      </trkpt>
      <trkpt lat="48.41245" lon="6.75358">
        <ele>341.06</ele>
        <time>2022-02-03T14:02:14Z</time>
      </trkpt>
      <trkpt lat="48.41241" lon="6.7536">
        <ele>341.31</ele>
        <time>2022-02-03T14:02:17Z</time>
      </trkpt>
      <trkpt lat="48.41219" lon="6.75373">
        <ele>341.63</ele>
        <time>2022-02-03T14:02:39Z</time>
      </trkpt>
      <trkpt lat="48.4121" lon="6.75401">
        <ele>341.12</ele>
        <time>2022-02-03T14:02:55Z</time>
      </trkpt>
      <trkpt lat="48.41208" lon="6.75417">
        <ele>340.86</ele>
        <time>2022-02-03T14:03:03Z</time>
      </trkpt>
      <trkpt lat="48.41204" lon="6.75428">
        <ele>340.76</ele>
        <time>2022-02-03T14:03:09Z</time>
      </trkpt>
      <trkpt lat="48.412" lon="6.7543">
        <ele>340.5</ele>
        <time>2022-02-03T14:03:12Z</time>
      </trkpt>
      <trkpt lat="48.41186" lon="6.75418">
        <ele>340.44</ele>
        <time>2022-02-03T14:03:30Z</time>
      </trkpt>
      <trkpt lat="48.4117" lon="6.75402">
        <ele>339.56</ele>
        <time>2022-02-03T14:03:50Z</time>
      </trkpt>
      <trkpt lat="48.41154" lon="6.7539">
        <ele>340.35</ele>
        <time>2022-02-03T14:04:09Z</time>
      </trkpt>
      <trkpt lat="48.41145" lon="6.75396">
        <ele>341.54</ele>
        <time>2022-02-03T14:04:28Z</time>
      </trkpt>
      <trkpt lat="48.41137" lon="6.75406">
        <ele>341.08</ele>
        <time>2022-02-03T14:04:47Z</time>
      </trkpt>
      <trkpt lat="48.41132" lon="6.7541">
        <ele>341.36</ele>
        <time>2022-02-03T14:04:57Z</time>
      </trkpt>
      <trkpt lat="48.41112" lon="6.7542">
        <ele>341.43</ele>
        <time>2022-02-03T14:05:22Z</time>
      </trkpt>
      <trkpt lat="48.41084" lon="6.75437">
        <ele>341.06</ele>
        <time>2022-02-03T14:05:47Z</time>
      </trkpt>
      <trkpt lat="48.41064" lon="6.75444">
        <ele>340.73</ele>
        <time>2022-02-03T14:06:11Z</time>
      </trkpt>
      <trkpt lat="48.4105" lon="6.75447">
        <ele>340.39</ele>
        <time>2022-02-03T14:06:27Z</time>
      </trkpt>
      <trkpt lat="48.4103" lon="6.75453">
        <ele>338.68</ele>
        <time>2022-02-03T14:06:50Z</time>
      </trkpt>
      <trkpt lat="48.41005" lon="6.75464">
        <ele>338.97</ele>
        <time>2022-02-03T14:07:11Z</time>
      </trkpt>
      <trkpt lat="48.40986" lon="6.75477">
        <ele>339.91</ele>
        <time>2022-02-03T14:07:32Z</time>
      </trkpt>
      <trkpt lat="48.40972" lon="6.75486">
        <ele>341.19</ele>
        <time>2022-02-03T14:07:50Z</time>
      </trkpt>
      <trkpt lat="48.40956" lon="6.75494">
        <ele>341.12</ele>
        <time>2022-02-03T14:08:09Z</time>
      </trkpt>
      <trkpt lat="48.40933" lon="6.75501">
        <ele>341.39</ele>
        <time>2022-02-03T14:08:31Z</time>
      </trkpt>
      <trkpt lat="48.40916" lon="6.75506">
        <ele>340.89</ele>
        <time>2022-02-03T14:08:51Z</time>
      </trkpt>
      <trkpt lat="48.40899" lon="6.75512">
        <ele>339.59</ele>
        <time>2022-02-03T14:09:12Z</time>
      </trkpt>
      <trkpt lat="48.40878" lon="6.75521">
        <ele>338.23</ele>
        <time>2022-02-03T14:09:29Z</time>
      </trkpt>
      <trkpt lat="48.40858" lon="6.75525">
        <ele>337.21</ele>
        <time>2022-02-03T14:09:46Z</time>
      </trkpt>
      <trkpt lat="48.40834" lon="6.75536">
        <ele>335.25</ele>
        <time>2022-02-03T14:10:08Z</time>
      </trkpt>
      <trkpt lat="48.40821" lon="6.7554">
        <ele>332.13</ele>
        <time>2022-02-03T14:10:24Z</time>
      </trkpt>
      <trkpt lat="48.408" lon="6.75552">
        <ele>330.71</ele>
        <time>2022-02-03T14:10:45Z</time>
      </trkpt>
      <trkpt lat="48.40781" lon="6.75566">
        <ele>330.34</ele>
        <time>2022-02-03T14:11:05Z</time>
      </trkpt>
      <trkpt lat="48.40765" lon="6.75566">
        <ele>332.22</ele>
        <time>2022-02-03T14:11:28Z</time>
      </trkpt>
      <trkpt lat="48.40743" lon="6.7557">
        <ele>333.49</ele>
        <time>2022-02-03T14:11:55Z</time>
      </trkpt>
      <trkpt lat="48.40734" lon="6.75573">
        <ele>333.74</ele>
        <time>2022-02-03T14:12:06Z</time>
      </trkpt>
      <trkpt lat="48.40728" lon="6.75576">
        <ele>334.81</ele>
        <time>2022-02-03T14:12:14Z</time>
      </trkpt>
      <trkpt lat="48.40716" lon="6.75582">
        <ele>335.04</ele>
        <time>2022-02-03T14:12:24Z</time>
      </trkpt>
      <trkpt lat="48.40691" lon="6.75596">
        <ele>335.39</ele>
        <time>2022-02-03T14:12:44Z</time>
      </trkpt>
      <trkpt lat="48.40665" lon="6.75602">
        <ele>335.32</ele>
        <time>2022-02-03T14:13:04Z</time>
      </trkpt>
      <trkpt lat="48.40644" lon="6.75606">
        <ele>335.39</ele>
        <time>2022-02-03T14:13:28Z</time>
      </trkpt>
      <trkpt lat="48.40621" lon="6.75614">
        <ele>333.25</ele>
        <time>2022-02-03T14:13:50Z</time>
      </trkpt>
      <trkpt lat="48.40606" lon="6.75621">
        <ele>330.24</ele>
        <time>2022-02-03T14:14:07Z</time>
      </trkpt>
      <trkpt lat="48.40586" lon="6.75632">
        <ele>327.15</ele>
        <time>2022-02-03T14:14:27Z</time>
      </trkpt>
      <trkpt lat="48.40581" lon="6.75633">
        <ele>327.1</ele>
        <time>2022-02-03T14:14:31Z</time>
      </trkpt>
      <trkpt lat="48.40564" lon="6.75641">
        <ele>327.92</ele>
        <time>2022-02-03T14:14:50Z</time>
      </trkpt>
      <trkpt lat="48.4055" lon="6.75646">
        <ele>330.97</ele>
        <time>2022-02-03T14:15:07Z</time>
      </trkpt>
      <trkpt lat="48.40535" lon="6.75654">
        <ele>331.81</ele>
        <time>2022-02-03T14:15:28Z</time>
      </trkpt>
      <trkpt lat="48.40515" lon="6.75665">
        <ele>333.08</ele>
        <time>2022-02-03T14:15:49Z</time>
      </trkpt>
      <trkpt lat="48.4051" lon="6.75673">
        <ele>333.01</ele>
        <time>2022-02-03T14:15:56Z</time>
      </trkpt>
      <trkpt lat="48.40491" lon="6.75671">
        <ele>333.46</ele>
        <time>2022-02-03T14:16:20Z</time>
      </trkpt>
      <trkpt lat="48.40464" lon="6.7568">
        <ele>332.24</ele>
        <time>2022-02-03T14:16:43Z</time>
      </trkpt>
      <trkpt lat="48.40443" lon="6.75686">
        <ele>332.34</ele>
        <time>2022-02-03T14:17:03Z</time>
      </trkpt>
      <trkpt lat="48.40419" lon="6.75697">
        <ele>330.09</ele>
        <time>2022-02-03T14:17:26Z</time>
      </trkpt>
      <trkpt lat="48.40401" lon="6.75702">
        <ele>326.97</ele>
        <time>2022-02-03T14:17:46Z</time>
      </trkpt>
      <trkpt lat="48.40389" lon="6.75702">
        <ele>323.75</ele>
        <time>2022-02-03T14:18:06Z</time>
      </trkpt>
      <trkpt lat="48.4038" lon="6.75704">
        <ele>320.61</ele>
        <time>2022-02-03T14:18:18Z</time>
      </trkpt>
      <trkpt lat="48.4037" lon="6.75713">
        <ele>317.55</ele>
        <time>2022-02-03T14:18:33Z</time>
      </trkpt>
      <trkpt lat="48.40341" lon="6.75722">
        <ele>318.32</ele>
        <time>2022-02-03T14:18:53Z</time>
      </trkpt>
      <trkpt lat="48.4033" lon="6.75727">
        <ele>320.43</ele>
        <time>2022-02-03T14:19:15Z</time>
      </trkpt>
      <trkpt lat="48.40324" lon="6.75729">
        <ele>323.51</ele>
        <time>2022-02-03T14:19:22Z</time>
      </trkpt>
      <trkpt lat="48.40312" lon="6.75731">
        <ele>323.85</ele>
        <time>2022-02-03T14:19:39Z</time>
      </trkpt>
      <trkpt lat="48.40299" lon="6.7573">
        <ele>327.18</ele>
        <time>2022-02-03T14:19:58Z</time>
      </trkpt>
      <trkpt lat="48.40274" lon="6.75727">
        <ele>328.94</ele>
        <time>2022-02-03T14:20:21Z</time>
      </trkpt>
      <trkpt lat="48.40267" lon="6.75726">
        <ele>328.29</ele>
        <time>2022-02-03T14:20:27Z</time>
      </trkpt>
      <trkpt lat="48.40257" lon="6.75726">
        <ele>328.36</ele>
        <time>2022-02-03T14:20:34Z</time>
      </trkpt>
      <trkpt lat="48.40238" lon="6.75721">
        <ele>328.78</ele>
        <time>2022-02-03T14:20:55Z</time>
      </trkpt>
      <trkpt lat="48.40227" lon="6.75725">
        <ele>329.31</ele>
        <time>2022-02-03T14:21:13Z</time>
      </trkpt>
      <trkpt lat="48.40204" lon="6.75727">
        <ele>328.58</ele>
        <time>2022-02-03T14:21:33Z</time>
      </trkpt>
      <trkpt lat="48.40181" lon="6.75737">
        <ele>328.77</ele>
        <time>2022-02-03T14:21:53Z</time>
      </trkpt>
      <trkpt lat="48.40178" lon="6.75737">
        <ele>328.02</ele>
        <time>2022-02-03T14:21:58Z</time>
      </trkpt>
      <trkpt lat="48.4015" lon="6.75732">
        <ele>328.94</ele>
        <time>2022-02-03T14:22:19Z</time>
      </trkpt>
      <trkpt lat="48.40131" lon="6.75725">
        <ele>328</ele>
        <time>2022-02-03T14:22:39Z</time>
      </trkpt>
      <trkpt lat="48.40113" lon="6.75719">
        <ele>327.08</ele>
        <time>2022-02-03T14:22:58Z</time>
      </trkpt>
      <trkpt lat="48.40101" lon="6.75718">
        <ele>326.8</ele>
        <time>2022-02-03T14:23:24Z</time>
      </trkpt>
      <trkpt lat="48.40098" lon="6.75719">
        <ele>327</ele>
        <time>2022-02-03T14:23:51Z</time>
      </trkpt>
      <trkpt lat="48.40101" lon="6.75722">
        <ele>327.03</ele>
        <time>2022-02-03T14:24:15Z</time>
      </trkpt>
      <trkpt lat="48.40099" lon="6.75721">
        <ele>327.1</ele>
        <time>2022-02-03T14:24:41Z</time>
      </trkpt>
      <trkpt lat="48.40105" lon="6.75731">
        <ele>327.69</ele>
        <time>2022-02-03T14:25:08Z</time>
      </trkpt>
      <trkpt lat="48.40105" lon="6.75731">
        <ele>327.92</ele>
        <time>2022-02-03T14:25:32Z</time>
      </trkpt>
      <trkpt lat="48.40105" lon="6.75732">
        <ele>328.2</ele>
        <time>2022-02-03T14:25:59Z</time>
      </trkpt>
      <trkpt lat="48.40101" lon="6.75731">
        <ele>328.19</ele>
        <time>2022-02-03T14:26:28Z</time>
      </trkpt>
      <trkpt lat="48.40096" lon="6.75725">
        <ele>328.79</ele>
        <time>2022-02-03T14:26:53Z</time>
      </trkpt>
      <trkpt lat="48.40098" lon="6.75705">
        <ele>328.22</ele>
        <time>2022-02-03T14:27:15Z</time>
      </trkpt>
      <trkpt lat="48.40099" lon="6.75691">
        <ele>330.46</ele>
        <time>2022-02-03T14:27:29Z</time>
      </trkpt>
      <trkpt lat="48.40099" lon="6.75683">
        <ele>330.21</ele>
        <time>2022-02-03T14:27:35Z</time>
      </trkpt>
      <trkpt lat="48.40099" lon="6.7566">
        <ele>330.67</ele>
        <time>2022-02-03T14:27:52Z</time>
      </trkpt>
      <trkpt lat="48.401" lon="6.75629">
        <ele>332.59</ele>
        <time>2022-02-03T14:28:12Z</time>
      </trkpt>
      <trkpt lat="48.401" lon="6.75602">
        <ele>332.8</ele>
        <time>2022-02-03T14:28:33Z</time>
      </trkpt>
      <trkpt lat="48.40103" lon="6.75587">
        <ele>332.92</ele>
        <time>2022-02-03T14:28:43Z</time>
      </trkpt>
      <trkpt lat="48.40095" lon="6.75566">
        <ele>333.07</ele>
        <time>2022-02-03T14:29:01Z</time>
      </trkpt>
      <trkpt lat="48.40093" lon="6.75567">
        <ele>332.93</ele>
        <time>2022-02-03T14:29:26Z</time>
      </trkpt>
      <trkpt lat="48.4008" lon="6.75576">
        <ele>332.27</ele>
        <time>2022-02-03T14:29:43Z</time>
      </trkpt>
      <trkpt lat="48.40061" lon="6.75582">
        <ele>331.04</ele>
        <time>2022-02-03T14:30:03Z</time>
      </trkpt>
      <trkpt lat="48.40037" lon="6.75587">
        <ele>329.86</ele>
        <time>2022-02-03T14:30:26Z</time>
      </trkpt>
      <trkpt lat="48.40036" lon="6.75587">
        <ele>329.3</ele>
        <time>2022-02-03T14:30:27Z</time>
      </trkpt>
      <trkpt lat="48.40021" lon="6.75595">
        <ele>328.56</ele>
        <time>2022-02-03T14:30:44Z</time>
      </trkpt>
      <trkpt lat="48.40003" lon="6.75621">
        <ele>329.22</ele>
        <time>2022-02-03T14:31:03Z</time>
      </trkpt>
      <trkpt lat="48.39992" lon="6.7565">
        <ele>330.17</ele>
        <time>2022-02-03T14:31:19Z</time>
      </trkpt>
      <trkpt lat="48.39987" lon="6.75663">
        <ele>330.99</ele>
        <time>2022-02-03T14:31:29Z</time>
      </trkpt>
      <trkpt lat="48.39982" lon="6.75689">
        <ele>331.34</ele>
        <time>2022-02-03T14:31:48Z</time>
      </trkpt>
      <trkpt lat="48.39969" lon="6.75711">
        <ele>332.34</ele>
        <time>2022-02-03T14:32:09Z</time>
      </trkpt>
      <trkpt lat="48.39965" lon="6.75725">
        <ele>331.14</ele>
        <time>2022-02-03T14:32:18Z</time>
      </trkpt>
      <trkpt lat="48.39954" lon="6.75743">
        <ele>331.37</ele>
        <time>2022-02-03T14:32:34Z</time>
      </trkpt>
      <trkpt lat="48.39935" lon="6.75758">
        <ele>330.15</ele>
        <time>2022-02-03T14:32:55Z</time>
      </trkpt>
      <trkpt lat="48.39919" lon="6.75767">
        <ele>327.93</ele>
        <time>2022-02-03T14:33:11Z</time>
      </trkpt>
      <trkpt lat="48.39903" lon="6.75772">
        <ele>326.84</ele>
        <time>2022-02-03T14:33:24Z</time>
      </trkpt>
      <trkpt lat="48.39884" lon="6.75778">
        <ele>326.84</ele>
        <time>2022-02-03T14:33:40Z</time>
      </trkpt>
      <trkpt lat="48.39874" lon="6.7578">
        <ele>326.62</ele>
        <time>2022-02-03T14:33:51Z</time>
      </trkpt>
      <trkpt lat="48.39867" lon="6.75783">
        <ele>326.28</ele>
        <time>2022-02-03T14:33:59Z</time>
      </trkpt>
      <trkpt lat="48.39842" lon="6.75783">
        <ele>325.45</ele>
        <time>2022-02-03T14:34:19Z</time>
      </trkpt>
      <trkpt lat="48.3982" lon="6.75781">
        <ele>325.25</ele>
        <time>2022-02-03T14:34:41Z</time>
      </trkpt>
      <trkpt lat="48.39798" lon="6.75788">
        <ele>326.83</ele>
        <time>2022-02-03T14:35:03Z</time>
      </trkpt>
      <trkpt lat="48.39775" lon="6.75788">
        <ele>327.36</ele>
        <time>2022-02-03T14:35:25Z</time>
      </trkpt>
      <trkpt lat="48.39747" lon="6.75786">
        <ele>326.86</ele>
        <time>2022-02-03T14:35:46Z</time>
      </trkpt>
      <trkpt lat="48.39733" lon="6.75811">
        <ele>326.9</ele>
        <time>2022-02-03T14:36:06Z</time>
      </trkpt>
      <trkpt lat="48.39733" lon="6.75862">
        <ele>326.89</ele>
        <time>2022-02-03T14:36:27Z</time>
      </trkpt>
      <trkpt lat="48.39736" lon="6.75884">
        <ele>328.46</ele>
        <time>2022-02-03T14:36:45Z</time>
      </trkpt>
      <trkpt lat="48.39738" lon="6.75912">
        <ele>329.82</ele>
        <time>2022-02-03T14:37:02Z</time>
      </trkpt>
      <trkpt lat="48.39744" lon="6.7593">
        <ele>329.41</ele>
        <time>2022-02-03T14:37:16Z</time>
      </trkpt>
      <trkpt lat="48.39745" lon="6.75963">
        <ele>331.16</ele>
        <time>2022-02-03T14:37:35Z</time>
      </trkpt>
      <trkpt lat="48.39756" lon="6.75991">
        <ele>331.38</ele>
        <time>2022-02-03T14:37:51Z</time>
      </trkpt>
      <trkpt lat="48.39757" lon="6.75993">
        <ele>331.1</ele>
        <time>2022-02-03T14:37:52Z</time>
      </trkpt>
      <trkpt lat="48.39763" lon="6.76015">
        <ele>332.9</ele>
        <time>2022-02-03T14:38:07Z</time>
      </trkpt>
      <trkpt lat="48.39766" lon="6.76042">
        <ele>334.35</ele>
        <time>2022-02-03T14:38:25Z</time>
      </trkpt>
      <trkpt lat="48.39773" lon="6.76062">
        <ele>336.2</ele>
        <time>2022-02-03T14:38:40Z</time>
      </trkpt>
      <trkpt lat="48.39781" lon="6.76092">
        <ele>338.36</ele>
        <time>2022-02-03T14:39:00Z</time>
      </trkpt>
      <trkpt lat="48.39784" lon="6.76112">
        <ele>338.66</ele>
        <time>2022-02-03T14:39:14Z</time>
      </trkpt>
      <trkpt lat="48.39788" lon="6.76139">
        <ele>339.39</ele>
        <time>2022-02-03T14:39:33Z</time>
      </trkpt>
      <trkpt lat="48.39798" lon="6.7616">
        <ele>340.32</ele>
        <time>2022-02-03T14:39:52Z</time>
      </trkpt>
      <trkpt lat="48.39804" lon="6.76183">
        <ele>340.72</ele>
        <time>2022-02-03T14:40:11Z</time>
      </trkpt>
      <trkpt lat="48.39812" lon="6.76211">
        <ele>341.44</ele>
        <time>2022-02-03T14:40:28Z</time>
      </trkpt>
      <trkpt lat="48.39822" lon="6.7623">
        <ele>342.17</ele>
        <time>2022-02-03T14:40:48Z</time>
      </trkpt>
      <trkpt lat="48.39836" lon="6.76253">
        <ele>344.27</ele>
        <time>2022-02-03T14:41:06Z</time>
      </trkpt>
      <trkpt lat="48.39844" lon="6.76283">
        <ele>344.74</ele>
        <time>2022-02-03T14:41:25Z</time>
      </trkpt>
      <trkpt lat="48.39855" lon="6.76312">
        <ele>346.01</ele>
        <time>2022-02-03T14:41:43Z</time>
      </trkpt>
      <trkpt lat="48.39865" lon="6.76338">
        <ele>348.03</ele>
        <time>2022-02-03T14:42:00Z</time>
      </trkpt>
      <trkpt lat="48.39871" lon="6.76358">
        <ele>349.23</ele>
        <time>2022-02-03T14:42:17Z</time>
      </trkpt>
      <trkpt lat="48.39878" lon="6.76383">
        <ele>350.4</ele>
        <time>2022-02-03T14:42:34Z</time>
      </trkpt>
      <trkpt lat="48.39887" lon="6.76408">
        <ele>352.37</ele>
        <time>2022-02-03T14:42:51Z</time>
      </trkpt>
      <trkpt lat="48.39887" lon="6.76419">
        <ele>353.68</ele>
        <time>2022-02-03T14:43:01Z</time>
      </trkpt>
      <trkpt lat="48.39886" lon="6.76418">
        <ele>353.62</ele>
        <time>2022-02-03T14:43:27Z</time>
      </trkpt>
      <trkpt lat="48.39887" lon="6.7643">
        <ele>354.89</ele>
        <time>2022-02-03T14:43:51Z</time>
      </trkpt>
      <trkpt lat="48.39897" lon="6.76443">
        <ele>354.21</ele>
        <time>2022-02-03T14:44:08Z</time>
      </trkpt>
      <trkpt lat="48.39912" lon="6.76452">
        <ele>354.69</ele>
        <time>2022-02-03T14:44:25Z</time>
      </trkpt>
      <trkpt lat="48.39922" lon="6.76466">
        <ele>354.17</ele>
        <time>2022-02-03T14:44:45Z</time>
      </trkpt>
      <trkpt lat="48.39936" lon="6.7649">
        <ele>352.32</ele>
        <time>2022-02-03T14:45:06Z</time>
      </trkpt>
      <trkpt lat="48.39939" lon="6.76509">
        <ele>350.95</ele>
        <time>2022-02-03T14:45:25Z</time>
      </trkpt>
      <trkpt lat="48.39943" lon="6.76529">
        <ele>349.74</ele>
        <time>2022-02-03T14:45:40Z</time>
      </trkpt>
      <trkpt lat="48.39948" lon="6.76554">
        <ele>347.86</ele>
        <time>2022-02-03T14:45:59Z</time>
      </trkpt>
      <trkpt lat="48.39948" lon="6.76555">
        <ele>347.69</ele>
        <time>2022-02-03T14:46:00Z</time>
      </trkpt>
      <trkpt lat="48.39954" lon="6.76571">
        <ele>344.89</ele>
        <time>2022-02-03T14:46:13Z</time>
      </trkpt>
      <trkpt lat="48.39955" lon="6.76594">
        <ele>343.61</ele>
        <time>2022-02-03T14:46:32Z</time>
      </trkpt>
      <trkpt lat="48.39943" lon="6.76615">
        <ele>343.49</ele>
        <time>2022-02-03T14:46:52Z</time>
      </trkpt>
      <trkpt lat="48.39937" lon="6.76649">
        <ele>345.02</ele>
        <time>2022-02-03T14:47:10Z</time>
      </trkpt>
      <trkpt lat="48.39938" lon="6.76671">
        <ele>345.94</ele>
        <time>2022-02-03T14:47:22Z</time>
      </trkpt>
      <trkpt lat="48.39943" lon="6.76687">
        <ele>345.21</ele>
        <time>2022-02-03T14:47:35Z</time>
      </trkpt>
      <trkpt lat="48.39945" lon="6.76688">
        <ele>345.6</ele>
        <time>2022-02-03T14:47:42Z</time>
      </trkpt>
      <trkpt lat="48.39951" lon="6.76696">
        <ele>345.97</ele>
        <time>2022-02-03T14:48:13Z</time>
      </trkpt>
      <trkpt lat="48.39949" lon="6.76697">
        <ele>347.01</ele>
        <time>2022-02-03T14:48:41Z</time>
      </trkpt>
      <trkpt lat="48.39948" lon="6.76698">
        <ele>346.7</ele>
        <time>2022-02-03T14:49:04Z</time>
      </trkpt>
      <trkpt lat="48.3995" lon="6.76699">
        <ele>347.58</ele>
        <time>2022-02-03T14:49:23Z</time>
      </trkpt>
      <trkpt lat="48.39953" lon="6.76688">
        <ele>347.95</ele>
        <time>2022-02-03T14:49:42Z</time>
      </trkpt>
      <trkpt lat="48.39952" lon="6.76691">
        <ele>348.33</ele>
        <time>2022-02-03T14:50:09Z</time>
      </trkpt>
      <trkpt lat="48.39958" lon="6.76688">
        <ele>347.91</ele>
        <time>2022-02-03T14:50:27Z</time>
      </trkpt>
      <trkpt lat="48.39965" lon="6.76681">
        <ele>347.23</ele>
        <time>2022-02-03T14:50:43Z</time>
      </trkpt>
      <trkpt lat="48.39979" lon="6.76673">
        <ele>345.32</ele>
        <time>2022-02-03T14:51:02Z</time>
      </trkpt>
      <trkpt lat="48.39983" lon="6.76673">
        <ele>345.37</ele>
        <time>2022-02-03T14:51:07Z</time>
      </trkpt>
      <trkpt lat="48.39996" lon="6.76669">
        <ele>342.94</ele>
        <time>2022-02-03T14:51:22Z</time>
      </trkpt>
      <trkpt lat="48.40016" lon="6.76663">
        <ele>341.73</ele>
        <time>2022-02-03T14:51:41Z</time>
      </trkpt>
      <trkpt lat="48.40022" lon="6.76661">
        <ele>341.09</ele>
        <time>2022-02-03T14:51:46Z</time>
      </trkpt>
      <trkpt lat="48.40038" lon="6.76655">
        <ele>339.95</ele>
        <time>2022-02-03T14:52:02Z</time>
      </trkpt>
      <trkpt lat="48.40053" lon="6.76652">
        <ele>339.55</ele>
        <time>2022-02-03T14:52:15Z</time>
      </trkpt>
      <trkpt lat="48.40072" lon="6.76652">
        <ele>338.34</ele>
        <time>2022-02-03T14:52:29Z</time>
      </trkpt>
      <trkpt lat="48.40077" lon="6.7665">
        <ele>338.4</ele>
        <time>2022-02-03T14:52:32Z</time>
      </trkpt>
      <trkpt lat="48.40099" lon="6.76645">
        <ele>337.23</ele>
        <time>2022-02-03T14:52:51Z</time>
      </trkpt>
      <trkpt lat="48.40115" lon="6.76641">
        <ele>336.55</ele>
        <time>2022-02-03T14:53:07Z</time>
      </trkpt>
      <trkpt lat="48.40128" lon="6.76643">
        <ele>336.37</ele>
        <time>2022-02-03T14:53:24Z</time>
      </trkpt>
      <trkpt lat="48.4014" lon="6.76622">
        <ele>335.76</ele>
        <time>2022-02-03T14:53:44Z</time>
      </trkpt>
      <trkpt lat="48.40151" lon="6.766">
        <ele>335.19</ele>
        <time>2022-02-03T14:54:02Z</time>
      </trkpt>
      <trkpt lat="48.40165" lon="6.76583">
        <ele>334.08</ele>
        <time>2022-02-03T14:54:22Z</time>
      </trkpt>
      <trkpt lat="48.4018" lon="6.76579">
        <ele>332.38</ele>
        <time>2022-02-03T14:54:41Z</time>
      </trkpt>
      <trkpt lat="48.40196" lon="6.76574">
        <ele>332.32</ele>
        <time>2022-02-03T14:54:59Z</time>
      </trkpt>
      <trkpt lat="48.4021" lon="6.76571">
        <ele>330.63</ele>
        <time>2022-02-03T14:55:20Z</time>
      </trkpt>
      <trkpt lat="48.4023" lon="6.76565">
        <ele>329.93</ele>
        <time>2022-02-03T14:55:38Z</time>
      </trkpt>
      <trkpt lat="48.40241" lon="6.76563">
        <ele>328.68</ele>
        <time>2022-02-03T14:55:55Z</time>
      </trkpt>
      <trkpt lat="48.40252" lon="6.7657">
        <ele>328.64</ele>
        <time>2022-02-03T14:56:14Z</time>
      </trkpt>
      <trkpt lat="48.40269" lon="6.76572">
        <ele>328.5</ele>
        <time>2022-02-03T14:56:36Z</time>
      </trkpt>
      <trkpt lat="48.4029" lon="6.76562">
        <ele>326.92</ele>
        <time>2022-02-03T14:56:52Z</time>
      </trkpt>
      <trkpt lat="48.40302" lon="6.76552">
        <ele>325.68</ele>
        <time>2022-02-03T14:57:10Z</time>
      </trkpt>
      <trkpt lat="48.40321" lon="6.76539">
        <ele>325.04</ele>
        <time>2022-02-03T14:57:31Z</time>
      </trkpt>
      <trkpt lat="48.4034" lon="6.76532">
        <ele>323.41</ele>
        <time>2022-02-03T14:57:51Z</time>
      </trkpt>
      <trkpt lat="48.4036" lon="6.76523">
        <ele>322.44</ele>
        <time>2022-02-03T14:58:11Z</time>
      </trkpt>
      <trkpt lat="48.40375" lon="6.76515">
        <ele>322.42</ele>
        <time>2022-02-03T14:58:28Z</time>
      </trkpt>
      <trkpt lat="48.40395" lon="6.76506">
        <ele>321.33</ele>
        <time>2022-02-03T14:58:43Z</time>
      </trkpt>
      <trkpt lat="48.40412" lon="6.76493">
        <ele>319.77</ele>
        <time>2022-02-03T14:58:57Z</time>
      </trkpt>
      <trkpt lat="48.40416" lon="6.76489">
        <ele>319.35</ele>
        <time>2022-02-03T14:59:02Z</time>
      </trkpt>
      <trkpt lat="48.40433" lon="6.76479">
        <ele>318.25</ele>
        <time>2022-02-03T14:59:17Z</time>
      </trkpt>
      <trkpt lat="48.40448" lon="6.76469">
        <ele>317.67</ele>
        <time>2022-02-03T14:59:35Z</time>
      </trkpt>
      <trkpt lat="48.40466" lon="6.76452">
        <ele>316.95</ele>
        <time>2022-02-03T14:59:56Z</time>
      </trkpt>
      <trkpt lat="48.40483" lon="6.76434">
        <ele>314.08</ele>
        <time>2022-02-03T15:00:17Z</time>
      </trkpt>
      <trkpt lat="48.40492" lon="6.76414">
        <ele>313.56</ele>
        <time>2022-02-03T15:00:33Z</time>
      </trkpt>
      <trkpt lat="48.40494" lon="6.76406">
        <ele>312.62</ele>
        <time>2022-02-03T15:00:38Z</time>
      </trkpt>
      <trkpt lat="48.40504" lon="6.76383">
        <ele>311.64</ele>
        <time>2022-02-03T15:00:57Z</time>
      </trkpt>
      <trkpt lat="48.40518" lon="6.76349">
        <ele>309.93</ele>
        <time>2022-02-03T15:01:22Z</time>
      </trkpt>
      <trkpt lat="48.40524" lon="6.76332">
        <ele>309.23</ele>
        <time>2022-02-03T15:01:33Z</time>
      </trkpt>
      <trkpt lat="48.40526" lon="6.76323">
        <ele>308.81</ele>
        <time>2022-02-03T15:01:38Z</time>
      </trkpt>
      <trkpt lat="48.40535" lon="6.76302">
        <ele>307.53</ele>
        <time>2022-02-03T15:01:54Z</time>
      </trkpt>
      <trkpt lat="48.40551" lon="6.76278">
        <ele>306.88</ele>
        <time>2022-02-03T15:02:14Z</time>
      </trkpt>
      <trkpt lat="48.4057" lon="6.76257">
        <ele>305.56</ele>
        <time>2022-02-03T15:02:35Z</time>
      </trkpt>
      <trkpt lat="48.40577" lon="6.76232">
        <ele>304.7</ele>
        <time>2022-02-03T15:03:06Z</time>
      </trkpt>
      <trkpt lat="48.40589" lon="6.76207">
        <ele>303.4</ele>
        <time>2022-02-03T15:03:24Z</time>
      </trkpt>
      <trkpt lat="48.40591" lon="6.76203">
        <ele>303.01</ele>
        <time>2022-02-03T15:03:26Z</time>
      </trkpt>
      <trkpt lat="48.40601" lon="6.76185">
        <ele>302.44</ele>
        <time>2022-02-03T15:03:43Z</time>
      </trkpt>
      <trkpt lat="48.406" lon="6.76192">
        <ele>303.08</ele>
        <time>2022-02-03T15:04:03Z</time>
      </trkpt>
      <trkpt lat="48.40602" lon="6.76198">
        <ele>302.39</ele>
        <time>2022-02-03T15:04:36Z</time>
      </trkpt>
      <trkpt lat="48.40606" lon="6.7619">
        <ele>302.25</ele>
        <time>2022-02-03T15:04:53Z</time>
      </trkpt>
      <trkpt lat="48.40613" lon="6.76184">
        <ele>301.5</ele>
        <time>2022-02-03T15:04:59Z</time>
      </trkpt>
      <trkpt lat="48.40633" lon="6.76173">
        <ele>300.53</ele>
        <time>2022-02-03T15:05:19Z</time>
      </trkpt>
      <trkpt lat="48.40652" lon="6.76164">
        <ele>298.86</ele>
        <time>2022-02-03T15:05:39Z</time>
      </trkpt>
      <trkpt lat="48.40673" lon="6.76158">
        <ele>297.39</ele>
        <time>2022-02-03T15:05:59Z</time>
      </trkpt>
      <trkpt lat="48.40675" lon="6.76159">
        <ele>297.26</ele>
        <time>2022-02-03T15:06:01Z</time>
      </trkpt>
      <trkpt lat="48.40693" lon="6.76166">
        <ele>295.17</ele>
        <time>2022-02-03T15:06:20Z</time>
      </trkpt>
      <trkpt lat="48.40713" lon="6.76174">
        <ele>294.57</ele>
        <time>2022-02-03T15:06:33Z</time>
      </trkpt>
      <trkpt lat="48.40726" lon="6.76183">
        <ele>293.55</ele>
        <time>2022-02-03T15:06:45Z</time>
      </trkpt>
      <trkpt lat="48.40736" lon="6.76188">
        <ele>293.13</ele>
        <time>2022-02-03T15:06:53Z</time>
      </trkpt>
      <trkpt lat="48.40747" lon="6.76194">
        <ele>292.62</ele>
        <time>2022-02-03T15:07:03Z</time>
      </trkpt>
      <trkpt lat="48.40771" lon="6.76207">
        <ele>291.93</ele>
        <time>2022-02-03T15:07:20Z</time>
      </trkpt>
      <trkpt lat="48.40796" lon="6.76216">
        <ele>290.79</ele>
        <time>2022-02-03T15:07:38Z</time>
      </trkpt>
      <trkpt lat="48.408" lon="6.76218">
        <ele>289.99</ele>
        <time>2022-02-03T15:07:41Z</time>
      </trkpt>
      <trkpt lat="48.40824" lon="6.76227">
        <ele>288.69</ele>
        <time>2022-02-03T15:08:01Z</time>
      </trkpt>
      <trkpt lat="48.40854" lon="6.7624">
        <ele>287.26</ele>
        <time>2022-02-03T15:08:25Z</time>
      </trkpt>
      <trkpt lat="48.40868" lon="6.76242">
        <ele>286.64</ele>
        <time>2022-02-03T15:08:37Z</time>
      </trkpt>
      <trkpt lat="48.40886" lon="6.76244">
        <ele>287.18</ele>
        <time>2022-02-03T15:08:56Z</time>
      </trkpt>
      <trkpt lat="48.40893" lon="6.76246">
        <ele>287.42</ele>
        <time>2022-02-03T15:09:01Z</time>
      </trkpt>
      <trkpt lat="48.40909" lon="6.76248">
        <ele>288.42</ele>
        <time>2022-02-03T15:09:17Z</time>
      </trkpt>
      <trkpt lat="48.4093" lon="6.7626">
        <ele>286.6</ele>
        <time>2022-02-03T15:09:37Z</time>
      </trkpt>
      <trkpt lat="48.4094" lon="6.76273">
        <ele>286</ele>
        <time>2022-02-03T15:09:52Z</time>
      </trkpt>
      <trkpt lat="48.40956" lon="6.76294">
        <ele>285.1</ele>
        <time>2022-02-03T15:10:12Z</time>
      </trkpt>
      <trkpt lat="48.4098" lon="6.76319">
        <ele>285.62</ele>
        <time>2022-02-03T15:10:32Z</time>
      </trkpt>
      <trkpt lat="48.4099" lon="6.76328">
        <ele>284.91</ele>
        <time>2022-02-03T15:10:43Z</time>
      </trkpt>
      <trkpt lat="48.41013" lon="6.76343">
        <ele>284.54</ele>
        <time>2022-02-03T15:11:04Z</time>
      </trkpt>
      <trkpt lat="48.41039" lon="6.76354">
        <ele>286</ele>
        <time>2022-02-03T15:11:14Z</time>
      </trkpt>
      <trkpt lat="48.4105" lon="6.76367">
        <ele>286.69</ele>
        <time>2022-02-03T15:11:33Z</time>
      </trkpt>
      <trkpt lat="48.41061" lon="6.76367">
        <ele>286.28</ele>
        <time>2022-02-03T15:11:51Z</time>
      </trkpt>
      <trkpt lat="48.4109" lon="6.76379">
        <ele>284.93</ele>
        <time>2022-02-03T15:12:08Z</time>
      </trkpt>
      <trkpt lat="48.41091" lon="6.76378">
        <ele>284.54</ele>
        <time>2022-02-03T15:12:09Z</time>
      </trkpt>
      <trkpt lat="48.4112" lon="6.76382">
        <ele>283.02</ele>
        <time>2022-02-03T15:12:24Z</time>
      </trkpt>
      <trkpt lat="48.41138" lon="6.76386">
        <ele>281.65</ele>
        <time>2022-02-03T15:12:39Z</time>
      </trkpt>
      <trkpt lat="48.41158" lon="6.76389">
        <ele>280.68</ele>
        <time>2022-02-03T15:12:57Z</time>
      </trkpt>
      <trkpt lat="48.41181" lon="6.76382">
        <ele>279.72</ele>
        <time>2022-02-03T15:13:14Z</time>
      </trkpt>
      <trkpt lat="48.41185" lon="6.76383">
        <ele>278.94</ele>
        <time>2022-02-03T15:13:18Z</time>
      </trkpt>
      <trkpt lat="48.41194" lon="6.76388">
        <ele>279.35</ele>
        <time>2022-02-03T15:13:31Z</time>
      </trkpt>
      <trkpt lat="48.41193" lon="6.7638">
        <ele>279.58</ele>
        <time>2022-02-03T15:13:51Z</time>
      </trkpt>
      <trkpt lat="48.41191" lon="6.76371">
        <ele>279.98</ele>
        <time>2022-02-03T15:14:09Z</time>
      </trkpt>
      <trkpt lat="48.41187" lon="6.76367">
        <ele>279.76</ele>
        <time>2022-02-03T15:14:25Z</time>
      </trkpt>
      <trkpt lat="48.41189" lon="6.76369">
        <ele>280.75</ele>
        <time>2022-02-03T15:14:53Z</time>
      </trkpt>
      <trkpt lat="48.41189" lon="6.76372">
        <ele>281.39</ele>
        <time>2022-02-03T15:15:18Z</time>
      </trkpt>
      <trkpt lat="48.41189" lon="6.76378">
        <ele>282.03</ele>
        <time>2022-02-03T15:15:43Z</time>
      </trkpt>
      <trkpt lat="48.41189" lon="6.76382">
        <ele>282.12</ele>
        <time>2022-02-03T15:16:12Z</time>
      </trkpt>
      <trkpt lat="48.41189" lon="6.76381">
        <ele>282.07</ele>
        <time>2022-02-03T15:16:34Z</time>
      </trkpt>
      <trkpt lat="48.41191" lon="6.76369">
        <ele>282.66</ele>
        <time>2022-02-03T15:17:00Z</time>
      </trkpt>
      <trkpt lat="48.41192" lon="6.76366">
        <ele>283.43</ele>
        <time>2022-02-03T15:17:25Z</time>
      </trkpt>
      <trkpt lat="48.41193" lon="6.76367">
        <ele>283.19</ele>
        <time>2022-02-03T15:17:45Z</time>
      </trkpt>
      <trkpt lat="48.41192" lon="6.76372">
        <ele>283.68</ele>
        <time>2022-02-03T15:18:05Z</time>
      </trkpt>
      <trkpt lat="48.41197" lon="6.76379">
        <ele>283.78</ele>
        <time>2022-02-03T15:18:21Z</time>
      </trkpt>
      <trkpt lat="48.412" lon="6.76387">
        <ele>283.74</ele>
        <time>2022-02-03T15:18:34Z</time>
      </trkpt>
      <trkpt lat="48.41206" lon="6.76382">
        <ele>283.69</ele>
        <time>2022-02-03T15:18:55Z</time>
      </trkpt>
      <trkpt lat="48.41217" lon="6.76385">
        <ele>283.34</ele>
        <time>2022-02-03T15:19:10Z</time>
      </trkpt>
      <trkpt lat="48.41219" lon="6.76386">
        <ele>283.69</ele>
        <time>2022-02-03T15:19:12Z</time>
      </trkpt>
      <trkpt lat="48.41233" lon="6.76396">
        <ele>283.21</ele>
        <time>2022-02-03T15:19:31Z</time>
      </trkpt>
      <trkpt lat="48.41249" lon="6.76405">
        <ele>283.16</ele>
        <time>2022-02-03T15:19:47Z</time>
      </trkpt>
      <trkpt lat="48.41264" lon="6.76418">
        <ele>282.21</ele>
        <time>2022-02-03T15:20:02Z</time>
      </trkpt>
      <trkpt lat="48.41267" lon="6.76418">
        <ele>282.46</ele>
        <time>2022-02-03T15:20:05Z</time>
      </trkpt>
      <trkpt lat="48.41277" lon="6.76427">
        <ele>282.44</ele>
        <time>2022-02-03T15:20:16Z</time>
      </trkpt>
      <trkpt lat="48.4129" lon="6.76433">
        <ele>283.25</ele>
        <time>2022-02-03T15:20:30Z</time>
      </trkpt>
      <trkpt lat="48.41291" lon="6.76434">
        <ele>282.96</ele>
        <time>2022-02-03T15:20:31Z</time>
      </trkpt>
      <trkpt lat="48.41301" lon="6.7644">
        <ele>282.99</ele>
        <time>2022-02-03T15:20:40Z</time>
      </trkpt>
      <trkpt lat="48.41321" lon="6.76458">
        <ele>281.96</ele>
        <time>2022-02-03T15:20:59Z</time>
      </trkpt>
      <trkpt lat="48.41336" lon="6.76483">
        <ele>281.91</ele>
        <time>2022-02-03T15:21:15Z</time>
      </trkpt>
      <trkpt lat="48.4135" lon="6.76505">
        <ele>280.63</ele>
        <time>2022-02-03T15:21:32Z</time>
      </trkpt>
      <trkpt lat="48.41362" lon="6.76533">
        <ele>281.03</ele>
        <time>2022-02-03T15:21:49Z</time>
      </trkpt>
      <trkpt lat="48.41367" lon="6.76539">
        <ele>280.28</ele>
        <time>2022-02-03T15:21:56Z</time>
      </trkpt>
      <trkpt lat="48.41377" lon="6.76561">
        <ele>280.43</ele>
        <time>2022-02-03T15:22:11Z</time>
      </trkpt>
      <trkpt lat="48.41381" lon="6.76566">
        <ele>281.3</ele>
        <time>2022-02-03T15:22:15Z</time>
      </trkpt>
      <trkpt lat="48.41385" lon="6.76569">
        <ele>280.57</ele>
        <time>2022-02-03T15:22:20Z</time>
      </trkpt>
      <trkpt lat="48.414" lon="6.76593">
        <ele>280.38</ele>
        <time>2022-02-03T15:22:35Z</time>
      </trkpt>
      <trkpt lat="48.41416" lon="6.76607">
        <ele>279.97</ele>
        <time>2022-02-03T15:22:49Z</time>
      </trkpt>
      <trkpt lat="48.41418" lon="6.76609">
        <ele>281.05</ele>
        <time>2022-02-03T15:22:51Z</time>
      </trkpt>
      <trkpt lat="48.41433" lon="6.76625">
        <ele>280.36</ele>
        <time>2022-02-03T15:23:04Z</time>
      </trkpt>
      <trkpt lat="48.41448" lon="6.76641">
        <ele>280.27</ele>
        <time>2022-02-03T15:23:18Z</time>
      </trkpt>
      <trkpt lat="48.41464" lon="6.76655">
        <ele>280.78</ele>
        <time>2022-02-03T15:23:32Z</time>
      </trkpt>
      <trkpt lat="48.41468" lon="6.76658">
        <ele>280.45</ele>
        <time>2022-02-03T15:23:36Z</time>
      </trkpt>
      <trkpt lat="48.41482" lon="6.76669">
        <ele>281.13</ele>
        <time>2022-02-03T15:23:51Z</time>
      </trkpt>
      <trkpt lat="48.41488" lon="6.76673">
        <ele>281.13</ele>
        <time>2022-02-03T15:23:57Z</time>
      </trkpt>
      <trkpt lat="48.41491" lon="6.76676">
        <ele>280.97</ele>
        <time>2022-02-03T15:24:02Z</time>
      </trkpt>
      <trkpt lat="48.41503" lon="6.76682">
        <ele>281.36</ele>
        <time>2022-02-03T15:24:15Z</time>
      </trkpt>
      <trkpt lat="48.41509" lon="6.76684">
        <ele>281.43</ele>
        <time>2022-02-03T15:24:19Z</time>
      </trkpt>
      <trkpt lat="48.4153" lon="6.76691">
        <ele>280.65</ele>
        <time>2022-02-03T15:24:34Z</time>
      </trkpt>
      <trkpt lat="48.41553" lon="6.76694">
        <ele>280.1</ele>
        <time>2022-02-03T15:24:50Z</time>
      </trkpt>
      <trkpt lat="48.41575" lon="6.76695">
        <ele>280.07</ele>
        <time>2022-02-03T15:25:06Z</time>
      </trkpt>
      <trkpt lat="48.41594" lon="6.76697">
        <ele>280.81</ele>
        <time>2022-02-03T15:25:22Z</time>
      </trkpt>
      <trkpt lat="48.41599" lon="6.76697">
        <ele>281.17</ele>
        <time>2022-02-03T15:25:26Z</time>
      </trkpt>
      <trkpt lat="48.41619" lon="6.767">
        <ele>280.41</ele>
        <time>2022-02-03T15:25:42Z</time>
      </trkpt>
      <trkpt lat="48.41635" lon="6.76705">
        <ele>279.73</ele>
        <time>2022-02-03T15:25:56Z</time>
      </trkpt>
      <trkpt lat="48.41649" lon="6.76716">
        <ele>278.46</ele>
        <time>2022-02-03T15:26:12Z</time>
      </trkpt>
      <trkpt lat="48.41669" lon="6.76734">
        <ele>277.47</ele>
        <time>2022-02-03T15:26:30Z</time>
      </trkpt>
      <trkpt lat="48.41689" lon="6.76752">
        <ele>276.99</ele>
        <time>2022-02-03T15:26:47Z</time>
      </trkpt>
      <trkpt lat="48.41704" lon="6.76766">
        <ele>276.9</ele>
        <time>2022-02-03T15:27:02Z</time>
      </trkpt>
      <trkpt lat="48.41718" lon="6.76781">
        <ele>276.06</ele>
        <time>2022-02-03T15:27:16Z</time>
      </trkpt>
      <trkpt lat="48.41733" lon="6.76794">
        <ele>276.38</ele>
        <time>2022-02-03T15:27:30Z</time>
      </trkpt>
      <trkpt lat="48.41752" lon="6.76806">
        <ele>276.13</ele>
        <time>2022-02-03T15:27:47Z</time>
      </trkpt>
      <trkpt lat="48.41779" lon="6.76814">
        <ele>276.34</ele>
        <time>2022-02-03T15:28:10Z</time>
      </trkpt>
      <trkpt lat="48.41793" lon="6.76817">
        <ele>276.93</ele>
        <time>2022-02-03T15:28:25Z</time>
      </trkpt>
      <trkpt lat="48.41807" lon="6.7682">
        <ele>277.25</ele>
        <time>2022-02-03T15:28:39Z</time>
      </trkpt>
      <trkpt lat="48.41829" lon="6.76826">
        <ele>277.66</ele>
        <time>2022-02-03T15:28:56Z</time>
      </trkpt>
      <trkpt lat="48.41847" lon="6.76831">
        <ele>276.87</ele>
        <time>2022-02-03T15:29:11Z</time>
      </trkpt>
      <trkpt lat="48.41865" lon="6.76833">
        <ele>276.72</ele>
        <time>2022-02-03T15:29:24Z</time>
      </trkpt>
      <trkpt lat="48.41869" lon="6.76833">
        <ele>276.79</ele>
        <time>2022-02-03T15:29:28Z</time>
      </trkpt>
      <trkpt lat="48.41879" lon="6.76833">
        <ele>276.56</ele>
        <time>2022-02-03T15:29:35Z</time>
      </trkpt>
      <trkpt lat="48.41893" lon="6.76833">
        <ele>276.25</ele>
        <time>2022-02-03T15:29:50Z</time>
      </trkpt>
      <trkpt lat="48.41905" lon="6.76833">
        <ele>274.18</ele>
        <time>2022-02-03T15:30:01Z</time>
      </trkpt>
      <trkpt lat="48.41922" lon="6.76844">
        <ele>272.74</ele>
        <time>2022-02-03T15:30:19Z</time>
      </trkpt>
      <trkpt lat="48.41928" lon="6.76848">
        <ele>272.23</ele>
        <time>2022-02-03T15:30:25Z</time>
      </trkpt>
      <trkpt lat="48.41945" lon="6.76859">
        <ele>271.69</ele>
        <time>2022-02-03T15:30:40Z</time>
      </trkpt>
      <trkpt lat="48.41964" lon="6.7687">
        <ele>271.42</ele>
        <time>2022-02-03T15:30:57Z</time>
      </trkpt>
      <trkpt lat="48.41966" lon="6.76869">
        <ele>271.34</ele>
        <time>2022-02-03T15:31:16Z</time>
      </trkpt>
      <trkpt lat="48.41969" lon="6.76871">
        <ele>271.29</ele>
        <time>2022-02-03T15:31:19Z</time>
      </trkpt>
      <trkpt lat="48.41981" lon="6.7688">
        <ele>270.54</ele>
        <time>2022-02-03T15:31:34Z</time>
      </trkpt>
      <trkpt lat="48.41983" lon="6.76882">
        <ele>270.74</ele>
        <time>2022-02-03T15:31:37Z</time>
      </trkpt>
      <trkpt lat="48.41986" lon="6.76884">
        <ele>270.45</ele>
        <time>2022-02-03T15:31:40Z</time>
      </trkpt>
      <trkpt lat="48.42001" lon="6.76896">
        <ele>269.98</ele>
        <time>2022-02-03T15:31:53Z</time>
      </trkpt>
      <trkpt lat="48.4201" lon="6.76906">
        <ele>269.89</ele>
        <time>2022-02-03T15:32:06Z</time>
      </trkpt>
      <trkpt lat="48.42012" lon="6.76905">
        <ele>270.2</ele>
        <time>2022-02-03T15:32:32Z</time>
      </trkpt>
      <trkpt lat="48.42011" lon="6.76903">
        <ele>270.53</ele>
        <time>2022-02-03T15:33:02Z</time>
      </trkpt>
      <trkpt lat="48.4201" lon="6.76901">
        <ele>271</ele>
        <time>2022-02-03T15:33:31Z</time>
      </trkpt>
      <trkpt lat="48.42012" lon="6.76902">
        <ele>270.91</ele>
        <time>2022-02-03T15:34:00Z</time>
      </trkpt>
      <trkpt lat="48.42013" lon="6.76906">
        <ele>271.19</ele>
        <time>2022-02-03T15:34:28Z</time>
      </trkpt>
      <trkpt lat="48.4201" lon="6.76905">
        <ele>270.7</ele>
        <time>2022-02-03T15:34:56Z</time>
      </trkpt>
      <trkpt lat="48.42007" lon="6.76905">
        <ele>271.38</ele>
        <time>2022-02-03T15:35:22Z</time>
      </trkpt>
      <trkpt lat="48.42007" lon="6.76904">
        <ele>272.28</ele>
        <time>2022-02-03T15:35:49Z</time>
      </trkpt>
      <trkpt lat="48.42007" lon="6.76902">
        <ele>273.23</ele>
        <time>2022-02-03T15:36:19Z</time>
      </trkpt>
      <trkpt lat="48.42007" lon="6.76902">
        <ele>273.64</ele>
        <time>2022-02-03T15:36:45Z</time>
      </trkpt>
      <trkpt lat="48.42012" lon="6.76906">
        <ele>273.81</ele>
        <time>2022-02-03T15:37:07Z</time>
      </trkpt>
      <trkpt lat="48.42013" lon="6.76907">
        <ele>274.15</ele>
        <time>2022-02-03T15:37:08Z</time>
      </trkpt>
      <trkpt lat="48.42017" lon="6.76912">
        <ele>273.33</ele>
        <time>2022-02-03T15:37:13Z</time>
      </trkpt>
      <trkpt lat="48.42033" lon="6.76926">
        <ele>272.76</ele>
        <time>2022-02-03T15:37:31Z</time>
      </trkpt>
      <trkpt lat="48.42048" lon="6.76938">
        <ele>272.44</ele>
        <time>2022-02-03T15:37:47Z</time>
      </trkpt>
      <trkpt lat="48.4205" lon="6.7694">
        <ele>273.1</ele>
        <time>2022-02-03T15:37:50Z</time>
      </trkpt>
      <trkpt lat="48.42054" lon="6.76943">
        <ele>272.66</ele>
        <time>2022-02-03T15:37:53Z</time>
      </trkpt>
      <trkpt lat="48.42067" lon="6.76955">
        <ele>272</ele>
        <time>2022-02-03T15:38:09Z</time>
      </trkpt>
      <trkpt lat="48.42081" lon="6.7697">
        <ele>271.35</ele>
        <time>2022-02-03T15:38:32Z</time>
      </trkpt>
      <trkpt lat="48.42104" lon="6.7699">
        <ele>271.08</ele>
        <time>2022-02-03T15:38:52Z</time>
      </trkpt>
      <trkpt lat="48.42118" lon="6.77014">
        <ele>270.94</ele>
        <time>2022-02-03T15:39:12Z</time>
      </trkpt>
      <trkpt lat="48.42137" lon="6.77042">
        <ele>270.91</ele>
        <time>2022-02-03T15:39:33Z</time>
      </trkpt>
      <trkpt lat="48.42147" lon="6.77062">
        <ele>270</ele>
        <time>2022-02-03T15:39:46Z</time>
      </trkpt>
      <trkpt lat="48.42158" lon="6.77086">
        <ele>269.48</ele>
        <time>2022-02-03T15:40:04Z</time>
      </trkpt>
      <trkpt lat="48.42167" lon="6.77104">
        <ele>269.54</ele>
        <time>2022-02-03T15:40:15Z</time>
      </trkpt>
      <trkpt lat="48.42177" lon="6.77117">
        <ele>268.55</ele>
        <time>2022-02-03T15:40:25Z</time>
      </trkpt>
      <trkpt lat="48.42198" lon="6.77134">
        <ele>266.8</ele>
        <time>2022-02-03T15:40:43Z</time>
      </trkpt>
      <trkpt lat="48.42214" lon="6.77155">
        <ele>266.31</ele>
        <time>2022-02-03T15:40:58Z</time>
      </trkpt>
      <trkpt lat="48.4223" lon="6.77165">
        <ele>266.85</ele>
        <time>2022-02-03T15:41:13Z</time>
      </trkpt>
      <trkpt lat="48.42242" lon="6.77171">
        <ele>268.46</ele>
        <time>2022-02-03T15:41:28Z</time>
      </trkpt>
      <trkpt lat="48.42259" lon="6.77179">
        <ele>267.91</ele>
        <time>2022-02-03T15:41:40Z</time>
      </trkpt>
      <trkpt lat="48.42276" lon="6.77198">
        <ele>269.11</ele>
        <time>2022-02-03T15:41:57Z</time>
      </trkpt>
      <trkpt lat="48.42282" lon="6.77204">
        <ele>267.75</ele>
        <time>2022-02-03T15:42:03Z</time>
      </trkpt>
      <trkpt lat="48.42292" lon="6.77218">
        <ele>266.31</ele>
        <time>2022-02-03T15:42:14Z</time>
      </trkpt>
      <trkpt lat="48.42308" lon="6.77231">
        <ele>264.66</ele>
        <time>2022-02-03T15:42:30Z</time>
      </trkpt>
      <trkpt lat="48.4233" lon="6.77255">
        <ele>263.35</ele>
        <time>2022-02-03T15:42:52Z</time>
      </trkpt>
      <trkpt lat="48.42348" lon="6.77266">
        <ele>262.24</ele>
        <time>2022-02-03T15:43:11Z</time>
      </trkpt>
      <trkpt lat="48.42369" lon="6.77277">
        <ele>261.17</ele>
        <time>2022-02-03T15:43:28Z</time>
      </trkpt>
      <trkpt lat="48.42392" lon="6.7729">
        <ele>260.93</ele>
        <time>2022-02-03T15:43:48Z</time>
      </trkpt>
      <trkpt lat="48.42412" lon="6.77293">
        <ele>260.35</ele>
        <time>2022-02-03T15:44:02Z</time>
      </trkpt>
      <trkpt lat="48.42431" lon="6.77297">
        <ele>261.17</ele>
        <time>2022-02-03T15:44:17Z</time>
      </trkpt>
      <trkpt lat="48.42435" lon="6.77296">
        <ele>261.21</ele>
        <time>2022-02-03T15:44:21Z</time>
      </trkpt>
      <trkpt lat="48.42456" lon="6.77297">
        <ele>260.46</ele>
        <time>2022-02-03T15:44:39Z</time>
      </trkpt>
      <trkpt lat="48.42479" lon="6.77302">
        <ele>261.17</ele>
        <time>2022-02-03T15:44:55Z</time>
      </trkpt>
      <trkpt lat="48.42481" lon="6.77302">
        <ele>260.58</ele>
        <time>2022-02-03T15:44:57Z</time>
      </trkpt>
      <trkpt lat="48.42502" lon="6.77307">
        <ele>261.05</ele>
        <time>2022-02-03T15:45:14Z</time>
      </trkpt>
      <trkpt lat="48.42523" lon="6.77312">
        <ele>261.95</ele>
        <time>2022-02-03T15:45:31Z</time>
      </trkpt>
      <trkpt lat="48.42524" lon="6.77312">
        <ele>261.96</ele>
        <time>2022-02-03T15:45:32Z</time>
      </trkpt>
      <trkpt lat="48.42533" lon="6.77316">
        <ele>262.78</ele>
        <time>2022-02-03T15:45:43Z</time>
      </trkpt>
      <trkpt lat="48.42556" lon="6.77328">
        <ele>262.5</ele>
        <time>2022-02-03T15:46:02Z</time>
      </trkpt>
      <trkpt lat="48.42572" lon="6.77342">
        <ele>261.68</ele>
        <time>2022-02-03T15:46:20Z</time>
      </trkpt>
      <trkpt lat="48.42586" lon="6.77358">
        <ele>260.29</ele>
        <time>2022-02-03T15:46:37Z</time>
      </trkpt>
      <trkpt lat="48.42599" lon="6.77376">
        <ele>259.75</ele>
        <time>2022-02-03T15:46:57Z</time>
      </trkpt>
      <trkpt lat="48.42613" lon="6.77388">
        <ele>259.27</ele>
        <time>2022-02-03T15:47:10Z</time>
      </trkpt>
      <trkpt lat="48.42627" lon="6.77404">
        <ele>258.88</ele>
        <time>2022-02-03T15:47:27Z</time>
      </trkpt>
      <trkpt lat="48.42632" lon="6.77409">
        <ele>259.95</ele>
        <time>2022-02-03T15:47:37Z</time>
      </trkpt>
      <trkpt lat="48.42638" lon="6.77413">
        <ele>258.23</ele>
        <time>2022-02-03T15:47:55Z</time>
      </trkpt>
      <trkpt lat="48.42651" lon="6.77435">
        <ele>257.18</ele>
        <time>2022-02-03T15:48:14Z</time>
      </trkpt>
      <trkpt lat="48.42653" lon="6.7745">
        <ele>256.25</ele>
        <time>2022-02-03T15:48:30Z</time>
      </trkpt>
      <trkpt lat="48.42659" lon="6.77452">
        <ele>256.94</ele>
        <time>2022-02-03T15:48:53Z</time>
      </trkpt>
      <trkpt lat="48.42658" lon="6.77451">
        <ele>257.4</ele>
        <time>2022-02-03T15:49:15Z</time>
      </trkpt>
      <trkpt lat="48.4266" lon="6.77453">
        <ele>256.76</ele>
        <time>2022-02-03T15:49:34Z</time>
      </trkpt>
    </trkseg>
  </trk>
</gpx>